Provisional Data: Susquehanna River near Rockville, PA


Please select a monitoring station.
Please select start date.
Please select start date.

Toggle Unit: C/F Toggle Unit: C/F
Sample Time Temperature (C) Temperature (F) Specific Conductivity (mS/cm) pH   Turbidity (NTU+) DO (mg/L)
8/1/2022 12:00:00 AM 22.87 73.166 7.78 4.35 -5
8/1/2022 12:15:00 AM 22.75 72.95 7.78 4.43 -5
8/1/2022 12:30:00 AM 23.24 73.832 7.78 4.39 -5
8/1/2022 12:45:00 AM 22.87 73.166 7.78 4.37 -5
8/1/2022 1:00:00 AM 22.75 72.95 7.78 4.36 -5
8/1/2022 1:15:00 AM 23.13 73.634 7.79 4.44 -5
8/1/2022 1:30:00 AM 22.75 72.95 7.79 4.49 -5
8/1/2022 1:45:00 AM 22.87 73.166 7.79 4.41 -5
8/1/2022 2:00:00 AM 23 73.4 7.8 4.48 -5
8/1/2022 2:15:00 AM 22.63 72.734 7.8 4.58 -5
8/1/2022 2:30:00 AM 23 73.4 7.8 4.59 -5
8/1/2022 2:45:00 AM 22.87 73.166 7.8 4.68 -5
8/1/2022 3:00:00 AM 22.63 72.734 7.79 4.5 -5
8/1/2022 3:15:00 AM 23.24 73.832 7.8 4.55 -5
8/1/2022 3:30:00 AM 22.87 73.166 7.8 4.56 -5
8/1/2022 3:45:00 AM 23 73.4 7.8 4.62 -5
8/1/2022 4:00:00 AM 23 73.4 7.8 4.61 -5
8/1/2022 4:15:00 AM 22.75 72.95 7.79 4.53 -5
8/1/2022 4:30:00 AM 23.13 73.634 7.78 4.55 -5
8/1/2022 4:45:00 AM 22.87 73.166 7.77 4.63 -5
8/1/2022 5:00:00 AM 22.75 72.95 7.75 4.6 -5
8/1/2022 5:15:00 AM 23.13 73.634 7.75 4.64 -5
8/1/2022 5:30:00 AM 22.63 72.734 7.74 4.65 -5
8/1/2022 5:45:00 AM 23 73.4 7.72 4.7 -5
8/1/2022 6:00:00 AM 22.75 72.95 7.72 4.78 -5
8/1/2022 6:15:00 AM 22.63 72.734 7.71 4.93 -5
8/1/2022 6:30:00 AM 23 73.4 7.7 4.74 -5
8/1/2022 6:45:00 AM 22.63 72.734 7.69 4.71 -5
8/1/2022 7:00:00 AM 23 73.4 7.68 4.68 -5
8/1/2022 7:15:00 AM 22.63 72.734 7.68 4.79 -5
8/1/2022 7:30:00 AM 22.63 72.734 7.67 4.58 -5
8/1/2022 7:45:00 AM 22.75 72.95 7.72 3.65 -5
8/1/2022 8:00:00 AM 22.36 72.248 7.72 3.61 -5
8/1/2022 8:15:00 AM 22.87 73.166 7.75 3.57 -5
8/1/2022 8:30:00 AM 22.37 72.266 7.74 3.52 -5
8/1/2022 8:45:00 AM 22.75 72.95 7.75 3.55 -5
8/1/2022 9:00:00 AM 22.5 72.5 7.74 3.56 -5
8/1/2022 9:15:00 AM 22.63 72.734 7.74 3.49 -5
8/1/2022 9:30:00 AM 22.5 72.5 7.75 3.48 -5
8/1/2022 9:45:00 AM 22.5 72.5 7.74 3.56 -5
8/1/2022 10:00:00 AM 22.5 72.5 7.74 3.54 -5
8/1/2022 10:15:00 AM 22.25 72.05 7.73 3.58 -5
8/1/2022 10:30:00 AM 22.5 72.5 7.75 3.49 -5
8/1/2022 10:45:00 AM 22.11 71.798 7.76 3.53 -5
8/1/2022 11:00:00 AM 22.5 72.5 7.77 3.47 -5
8/1/2022 11:15:00 AM 21.99 71.582 7.78 3.47 -5
8/1/2022 11:30:00 AM 22.62 72.716 7.79 3.44 -5
8/1/2022 11:45:00 AM 22.11 71.798 7.8 3.46 -5
8/1/2022 12:00:00 PM 22.5 72.5 7.8 3.57 -5
8/1/2022 12:15:00 PM 22.5 72.5 7.81 3.5 -5
8/1/2022 12:30:00 PM 22.5 72.5 7.82 3.52 -5
8/1/2022 12:45:00 PM 22.87 73.166 7.82 3.49 -5
8/1/2022 1:00:00 PM 22.5 72.5 7.83 3.44 -5
8/1/2022 1:15:00 PM 23.13 73.634 7.83 3.5 -5
8/1/2022 1:30:00 PM 22.75 72.95 7.82 3.45 -5
8/1/2022 1:45:00 PM 23 73.4 7.82 3.46 -5
8/1/2022 2:00:00 PM 23 73.4 7.82 3.41 -5
8/1/2022 2:15:00 PM 22.87 73.166 7.82 3.39 -5
8/1/2022 2:30:00 PM 23.38 74.084 7.83 3.36 -5
8/1/2022 2:45:00 PM 23 73.4 7.83 3.35 -5
8/1/2022 3:00:00 PM 23.39 74.102 7.83 3.48 -5
8/1/2022 3:15:00 PM 23.38 74.084 7.83 3.4 -5
8/1/2022 3:30:00 PM 23.13 73.634 7.84 3.35 -5
8/1/2022 3:45:00 PM 23.62 74.516 7.84 3.33 -5
8/1/2022 4:00:00 PM 23.24 73.832 7.85 3.33 -5
8/1/2022 4:15:00 PM 23.39 74.102 7.86 3.28 -5
8/1/2022 4:30:00 PM 23.5 74.3 7.86 3.24 -5
8/1/2022 4:45:00 PM 23.24 73.832 7.87 3.3 -5
8/1/2022 5:00:00 PM 23.62 74.516 7.88 3.25 -5
8/1/2022 5:15:00 PM 23.5 74.3 7.88 3.28 -5
8/1/2022 5:30:00 PM 23.38 74.084 7.88 3.26 -5
8/1/2022 5:45:00 PM 23.99 75.182 7.88 3.32 -5
8/1/2022 6:00:00 PM 23.62 74.516 7.9 3.35 -5
8/1/2022 6:15:00 PM 23.5 74.3 7.91 3.3 -5
8/1/2022 6:30:00 PM 23.99 75.182 7.9 3.36 -5
8/1/2022 6:45:00 PM 23.62 74.516 7.89 3.31 -5
8/1/2022 7:00:00 PM 23.39 74.102 7.9 3.34 -5
8/1/2022 7:15:00 PM 23.88 74.984 7.89 3.32 -5
8/1/2022 7:30:00 PM 23.5 74.3 7.89 3.4 -5
8/1/2022 7:45:00 PM 23.24 73.832 7.88 3.32 -5
8/1/2022 8:00:00 PM 23.88 74.984 7.88 3.38 -5
8/1/2022 8:15:00 PM 23.5 74.3 7.87 3.4 -5
8/1/2022 8:30:00 PM 23.24 73.832 7.86 3.48 -5
8/1/2022 8:45:00 PM 23.61 74.498 7.86 3.45 -5
8/1/2022 9:00:00 PM 23.61 74.498 7.83 3.63 -5
8/1/2022 9:15:00 PM 23.25 73.85 7.83 3.71 -5
8/1/2022 9:30:00 PM 23.14 73.652 7.82 3.75 -5
8/1/2022 9:45:00 PM 23.76 74.768 7.81 3.77 -5
8/1/2022 10:00:00 PM 23.5 74.3 7.8 3.78 -5
8/1/2022 10:15:00 PM 23.38 74.084 7.79 3.8 -5
8/1/2022 10:30:00 PM 23.24 73.832 7.78 3.9 -5
8/1/2022 10:45:00 PM 23.62 74.516 7.77 3.87 -5
8/1/2022 11:00:00 PM 23.62 74.516 7.77 4 -5
8/1/2022 11:15:00 PM 23.24 73.832 7.76 4.02 -5
8/1/2022 11:30:00 PM 23.24 73.832 7.77 4.03 -5
8/1/2022 11:45:00 PM 23.62 74.516 7.76 4.13 -5
8/2/2022 12:00:00 AM 23.39 74.102 7.75 4.09 -5
8/2/2022 12:15:00 AM 23.13 73.634 7.76 4.11 -5
8/2/2022 12:30:00 AM 23 73.4 7.76 4.17 -5
8/2/2022 12:45:00 AM 23.5 74.3 7.77 4.1 -5
8/2/2022 1:00:00 AM 23.13 73.634 7.76 4.28 -5
8/2/2022 1:15:00 AM 23 73.4 7.76 4.2 -5
8/2/2022 1:30:00 AM 23.13 73.634 7.76 4.23 -5
8/2/2022 1:45:00 AM 23.24 73.832 7.76 4.18 -5
8/2/2022 2:00:00 AM 23 73.4 7.78 4.21 -5
8/2/2022 2:15:00 AM 22.87 73.166 7.77 4.44 -5
8/2/2022 2:30:00 AM 23.38 74.084 7.77 4.27 -5
8/2/2022 2:45:00 AM 23.13 73.634 7.77 4.3 -5
8/2/2022 3:00:00 AM 22.87 73.166 7.78 4.31 -5
8/2/2022 3:15:00 AM 23 73.4 7.78 4.33 -5
8/2/2022 3:30:00 AM 23.25 73.85 7.78 4.64 -5
8/2/2022 3:45:00 AM 22.87 73.166 7.78 4.33 -5
8/2/2022 4:00:00 AM 22.75 72.95 7.79 4.34 -5
8/2/2022 4:15:00 AM 23.25 73.85 7.79 4.37 -5
8/2/2022 4:30:00 AM 22.87 73.166 7.79 4.36 -5
8/2/2022 4:45:00 AM 22.75 72.95 7.79 4.63 -5
8/2/2022 5:00:00 AM 23.25 73.85 7.79 4.35 -5
8/2/2022 5:15:00 AM 22.87 73.166 7.79 4.4 -5
8/2/2022 5:30:00 AM 22.75 72.95 7.79 4.41 -5
8/2/2022 5:45:00 AM 23.13 73.634 7.78 4.42 -5
8/2/2022 6:00:00 AM 22.87 73.166 7.77 4.54 -5
8/2/2022 6:15:00 AM 22.63 72.734 7.77 4.41 -5
8/2/2022 6:30:00 AM 23.13 73.634 7.77 4.46 -5
8/2/2022 6:45:00 AM 22.87 73.166 7.76 4.41 -5
8/2/2022 7:00:00 AM 22.63 72.734 7.76 4.41 -5
8/2/2022 7:15:00 AM 23.13 73.634 7.76 4.45 -5
8/2/2022 7:30:00 AM 22.75 72.95 7.76 4.39 -5
8/2/2022 7:45:00 AM 22.75 72.95 7.76 4.44 -5
8/2/2022 8:00:00 AM 23.13 73.634 7.77 4.34 -5
8/2/2022 8:15:00 AM 22.87 73.166 7.78 4.26 -5
8/2/2022 8:30:00 AM 23 73.4 7.78 4.19 -5
8/2/2022 8:45:00 AM 23.24 73.832 7.78 4.13 -5
8/2/2022 9:00:00 AM 22.87 73.166 7.78 4.01 -5
8/2/2022 9:15:00 AM 23 73.4 7.78 3.99 -5
8/2/2022 9:30:00 AM 23.24 73.832 7.78 3.86 -5
8/2/2022 9:45:00 AM 23 73.4 7.79 3.82 -5
8/2/2022 10:00:00 AM 23.13 73.634 7.79 3.84 -5
8/2/2022 10:15:00 AM 23.5 74.3 7.8 3.82 -5
8/2/2022 10:30:00 AM 23.24 73.832 7.8 3.86 -5
8/2/2022 10:45:00 AM 23.13 73.634 7.83 3.79 -5
8/2/2022 11:00:00 AM 23.38 74.084 7.83 3.74 -5
8/2/2022 11:15:00 AM 23.62 74.516 7.83 3.66 -5
8/2/2022 11:30:00 AM 23.38 74.084 7.83 3.74 -5
8/2/2022 11:45:00 AM 23.38 74.084 7.84 3.71 -5
8/2/2022 12:00:00 PM 23.38 74.084 7.84 3.64 -5
8/2/2022 12:15:00 PM 23.5 74.3 7.85 3.62 -5
8/2/2022 12:30:00 PM 24.13 75.434 7.85 3.64 -5
8/2/2022 12:45:00 PM 23.88 74.984 7.86 3.56 -5
8/2/2022 1:00:00 PM 23.88 74.984 7.87 3.62 -5
8/2/2022 1:15:00 PM 23.88 74.984 7.89 3.53 -5
8/2/2022 1:30:00 PM 23.88 74.984 7.95 3.53 -5
8/2/2022 1:45:00 PM 23.99 75.182 7.99 3.52 -5
8/2/2022 2:00:00 PM 23.99 75.182 8.01 3.5 -5
8/2/2022 2:15:00 PM 23.99 75.182 8.03 3.63 -5
8/2/2022 2:30:00 PM 24.13 75.434 8.05 3.55 -5
8/2/2022 2:45:00 PM 24.13 75.434 8.07 3.5 -5
8/2/2022 3:00:00 PM 24.25 75.65 8.08 3.48 -5
8/2/2022 3:15:00 PM 24.25 75.65 8.09 3.47 -5
8/2/2022 3:30:00 PM 24.37 75.866 8.1 3.49 -5
8/2/2022 3:45:00 PM 24.37 75.866 8.1 3.48 -5
8/2/2022 4:00:00 PM 24.37 75.866 8.1 3.48 -5
8/2/2022 4:15:00 PM 24.51 76.118 8.09 3.46 -5
8/2/2022 4:30:00 PM 24.51 76.118 8.11 3.41 -5
8/2/2022 4:45:00 PM 24.51 76.118 8.12 3.35 -5
8/2/2022 5:00:00 PM 24.62 76.316 8.13 3.44 -5
8/2/2022 5:15:00 PM 24.62 76.316 8.13 3.41 -5
8/2/2022 5:30:00 PM 24.75 76.55 8.13 3.45 -5
8/2/2022 5:45:00 PM 24.75 76.55 8.12 3.41 -5
8/2/2022 6:00:00 PM 24.75 76.55 8.14 3.4 -5
8/2/2022 6:15:00 PM 24.75 76.55 8.14 3.42 -5
8/2/2022 6:30:00 PM 24.75 76.55 8.13 3.47 -5
8/2/2022 6:45:00 PM 24.88 76.784 8.12 3.52 -5
8/2/2022 7:00:00 PM 24.75 76.55 8.11 3.45 -5
8/2/2022 7:15:00 PM 24.75 76.55 8.11 3.58 -5
8/2/2022 7:30:00 PM 24.75 76.55 8.11 3.53 -5
8/2/2022 7:45:00 PM 24.75 76.55 8.1 3.49 -5
8/2/2022 8:00:00 PM 24.75 76.55 8.08 3.62 -5
8/2/2022 8:15:00 PM 24.62 76.316 8.08 3.53 -5
8/2/2022 8:30:00 PM 24.62 76.316 8.06 3.62 -5
8/2/2022 8:45:00 PM 24.62 76.316 8.04 3.67 -5
8/2/2022 9:00:00 PM 24.51 76.118 8.03 3.73 -5
8/2/2022 9:15:00 PM 24.51 76.118 8.02 4.04 -5
8/2/2022 9:30:00 PM 24.51 76.118 8.01 3.79 -5
8/2/2022 9:45:00 PM 24.37 75.866 8.01 3.89 -5
8/2/2022 10:00:00 PM 24.37 75.866 7.99 4 -5
8/2/2022 10:15:00 PM 24.29 75.722 7.98 3.9 -5
8/2/2022 10:30:00 PM 24.37 75.866 7.97 4.21 -5
8/2/2022 10:45:00 PM 24.37 75.866 7.96 4 -5
8/2/2022 11:00:00 PM 24.62 76.316 7.95 3.99 -5
8/2/2022 11:15:00 PM 24.37 75.866 7.95 4.11 -5
8/2/2022 11:30:00 PM 24.25 75.65 7.95 4.07 -5
8/2/2022 11:45:00 PM 24.25 75.65 7.94 4.15 -5
8/3/2022 12:00:00 AM 24.25 75.65 7.94 4.17 -5
8/3/2022 12:15:00 AM 24.13 75.434 7.95 4.18 -5
8/3/2022 12:30:00 AM 24.13 75.434 7.96 4.22 -5
8/3/2022 12:45:00 AM 24.25 75.65 7.96 4.27 -5
8/3/2022 1:00:00 AM 24.51 76.118 7.96 4.15 -5
8/3/2022 1:15:00 AM 24.25 75.65 7.96 4.25 -5
8/3/2022 1:30:00 AM 23.99 75.182 7.97 4.32 -5
8/3/2022 1:45:00 AM 23.99 75.182 7.98 4.29 -5
8/3/2022 2:00:00 AM 24.25 75.65 7.98 4.3 -5
8/3/2022 2:15:00 AM 24.25 75.65 7.98 4.33 -5
8/3/2022 2:30:00 AM 23.99 75.182 7.98 4.4 -5
8/3/2022 2:45:00 AM 23.88 74.984 7.99 4.33 -5
8/3/2022 3:00:00 AM 24.37 75.866 7.99 4.44 -5
8/3/2022 3:15:00 AM 23.99 75.182 7.99 4.41 -5
8/3/2022 3:30:00 AM 23.88 74.984 7.99 4.44 -5
8/3/2022 3:45:00 AM 23.99 75.182 7.98 4.44 -5
8/3/2022 4:00:00 AM 24.13 75.434 7.98 4.43 -5
8/3/2022 4:15:00 AM 23.76 74.768 7.95 4.45 -5
8/3/2022 4:30:00 AM 23.76 74.768 7.93 4.42 -5
8/3/2022 4:45:00 AM 24.13 75.434 7.94 4.4 -5
8/3/2022 5:00:00 AM 23.76 74.768 7.92 4.54 -5
8/3/2022 5:15:00 AM 23.56 74.408 7.91 4.47 -5
8/3/2022 5:30:00 AM 23.99 75.182 7.92 4.51 -5
8/3/2022 5:45:00 AM 23.5 74.3 7.9 4.59 -5
8/3/2022 6:00:00 AM 23.5 74.3 7.9 4.61 -5
8/3/2022 6:15:00 AM 23.81 74.858 7.9 4.57 -5
8/3/2022 6:30:00 AM 23.5 74.3 7.89 4.51 -5
8/3/2022 6:45:00 AM 23.76 74.768 7.9 4.63 -5
8/3/2022 7:00:00 AM 23.62 74.516 7.9 4.5 -5
8/3/2022 7:15:00 AM 23.25 73.85 7.88 4.51 -5
8/3/2022 7:30:00 AM 23.88 74.984 7.89 4.43 -5
8/3/2022 7:45:00 AM 23.5 74.3 7.9 4.48 -5
8/3/2022 8:00:00 AM 23.24 73.832 7.9 4.47 -5
8/3/2022 8:15:00 AM 23.88 74.984 7.92 4.31 -5
8/3/2022 8:30:00 AM 23.39 74.102 7.92 4.27 -5
8/3/2022 8:45:00 AM 23.24 73.832 7.92 4.14 -5
8/3/2022 9:00:00 AM 23.88 74.984 7.93 4.18 -5
8/3/2022 9:15:00 AM 23.5 74.3 7.93 4.05 -5
8/3/2022 9:30:00 AM 23.38 74.084 7.94 4.03 -5
8/3/2022 9:45:00 AM 23.88 74.984 7.95 4.03 -5
8/3/2022 10:00:00 AM 23.77 74.786 7.95 4.06 -5
8/3/2022 10:15:00 AM 23.5 74.3 7.96 3.87 -5
8/3/2022 10:30:00 AM 24.13 75.434 7.96 3.86 -5
8/3/2022 10:45:00 AM 23.88 74.984 7.95 3.89 -5
8/3/2022 11:00:00 AM 23.88 74.984 7.95 3.88 -5
8/3/2022 11:15:00 AM 24.51 76.118 7.94 3.88 -5
8/3/2022 11:30:00 AM 24.14 75.452 7.94 3.78 -5
8/3/2022 11:45:00 AM 24.13 75.434 7.93 3.8 -5
8/3/2022 12:00:00 PM 24.51 76.118 7.92 3.86 -5
8/3/2022 12:15:00 PM 24.51 76.118 7.91 3.75 -5
8/3/2022 12:30:00 PM 24.37 75.866 7.91 3.8 -5
8/3/2022 12:45:00 PM 24.37 75.866 7.91 3.79 -5
8/3/2022 1:00:00 PM 25 77 7.91 3.7 -5
8/3/2022 1:15:00 PM 24.75 76.55 7.92 3.71 -5
8/3/2022 1:30:00 PM 24.74 76.532 7.93 3.68 -5
8/3/2022 1:45:00 PM 24.75 76.55 7.96 3.76 -5
8/3/2022 2:00:00 PM 24.88 76.784 7.98 3.63 -5
8/3/2022 2:15:00 PM 25.49 77.882 8 3.61 -5
8/3/2022 2:30:00 PM 25.25 77.45 8.03 3.57 -5
8/3/2022 2:45:00 PM 25.25 77.45 8.06 3.57 -5
8/3/2022 3:00:00 PM 25.25 77.45 8.09 3.66 -5
8/3/2022 3:15:00 PM 25.25 77.45 8.12 3.51 -5
8/3/2022 3:30:00 PM 25.25 77.45 8.12 3.44 -5
8/3/2022 3:45:00 PM 25.37 77.666 8.1 3.44 -5
8/3/2022 4:00:00 PM 25.25 77.45 8.12 3.41 -5
8/3/2022 4:15:00 PM 25.38 77.684 8.12 3.42 -5
8/3/2022 4:30:00 PM 25.37 77.666 8.12 3.54 -5
8/3/2022 4:45:00 PM 25.49 77.882 8.12 3.49 -5
8/3/2022 5:00:00 PM 26 78.8 8.12 3.51 -5
8/3/2022 5:15:00 PM 25.75 78.35 8.13 3.48 -5
8/3/2022 5:30:00 PM 25.75 78.35 8.14 3.47 -5
8/3/2022 5:45:00 PM 25.63 78.134 8.15 3.5 -5
8/3/2022 6:00:00 PM 25.63 78.134 8.14 3.51 -5
8/3/2022 6:15:00 PM 25.63 78.134 8.14 3.48 -5
8/3/2022 6:30:00 PM 25.63 78.134 8.13 3.49 -5
8/3/2022 6:45:00 PM 25.75 78.35 8.13 3.48 -5
8/3/2022 7:00:00 PM 25.63 78.134 8.12 3.65 -5
8/3/2022 7:15:00 PM 25.63 78.134 8.11 3.6 -5
8/3/2022 7:30:00 PM 25.75 78.35 8.1 3.62 -5
8/3/2022 7:45:00 PM 25.63 78.134 8.09 3.51 -5
8/3/2022 8:00:00 PM 25.63 78.134 8.07 3.55 -5
8/3/2022 8:15:00 PM 25.49 77.882 8.05 3.67 -5
8/3/2022 8:30:00 PM 25.49 77.882 8.04 3.67 -5
8/3/2022 8:45:00 PM 25.49 77.882 8.03 3.73 -5
8/3/2022 9:00:00 PM 25.37 77.666 8.03 3.79 -5
8/3/2022 9:15:00 PM 25.37 77.666 8.02 3.86 -5
8/3/2022 9:30:00 PM 25.25 77.45 8.01 3.92 -5
8/3/2022 9:45:00 PM 25.25 77.45 8.01 3.91 -5
8/3/2022 10:00:00 PM 25.25 77.45 7.99 3.94 -5
8/3/2022 10:15:00 PM 25.25 77.45 8 4 -5
8/3/2022 10:30:00 PM 25.12 77.216 7.99 3.95 -5
8/3/2022 10:45:00 PM 25.12 77.216 7.99 4.18 -5
8/3/2022 11:00:00 PM 25 77 7.99 4.01 -5
8/3/2022 11:15:00 PM 25 77 7.99 4.1 -5
8/3/2022 11:30:00 PM 24.88 76.784 7.99 4.1 -5
8/3/2022 11:45:00 PM 24.88 76.784 8 4.13 -5
8/4/2022 12:00:00 AM 24.75 76.55 8 4.15 -5
8/4/2022 12:15:00 AM 24.51 76.118 8.01 4.22 -5
8/4/2022 12:30:00 AM 24.51 76.118 8.01 4.28 -5
8/4/2022 12:45:00 AM 24.37 75.866 7.99 4.22 -5
8/4/2022 1:00:00 AM 24.25 75.65 7.97 4.24 -5
8/4/2022 1:15:00 AM 24.37 75.866 7.96 4.25 -5
8/4/2022 1:30:00 AM 24.25 75.65 7.95 4.29 -5
8/4/2022 1:45:00 AM 24.25 75.65 7.95 4.42 -5
8/4/2022 2:00:00 AM 24.25 75.65 7.94 4.28 -5
8/4/2022 2:15:00 AM 24.14 75.452 7.93 4.34 -5
8/4/2022 2:30:00 AM 23.99 75.182 7.93 4.33 -5
8/4/2022 2:45:00 AM 23.99 75.182 7.92 4.3 -5
8/4/2022 3:00:00 AM 23.99 75.182 7.92 4.34 -5
8/4/2022 3:15:00 AM 24.25 75.65 7.92 4.35 -5
8/4/2022 3:30:00 AM 24.37 75.866 7.93 4.34 -5
8/4/2022 3:45:00 AM 24.13 75.434 7.92 4.35 -5
8/4/2022 4:00:00 AM 23.99 75.182 7.92 4.34 -5
8/4/2022 4:15:00 AM 23.99 75.182 7.91 4.38 -5
8/4/2022 4:30:00 AM 23.99 75.182 7.91 4.35 -5
8/4/2022 4:45:00 AM 24.37 75.866 7.93 4.39 -5
8/4/2022 5:00:00 AM 24.13 75.434 7.92 4.44 -5
8/4/2022 5:15:00 AM 23.99 75.182 7.9 4.32 -5
8/4/2022 5:30:00 AM 23.88 74.984 7.89 4.44 -5
8/4/2022 5:45:00 AM 23.88 74.984 7.89 4.46 -5
8/4/2022 6:00:00 AM 24.51 76.118 7.9 4.5 -5
8/4/2022 6:15:00 AM 24.14 75.452 7.89 4.61 -5
8/4/2022 6:30:00 AM 23.99 75.182 7.87 4.52 -5
8/4/2022 6:45:00 AM 23.88 74.984 7.87 4.39 -5
8/4/2022 7:00:00 AM 24.37 75.866 7.87 4.4 -5
8/4/2022 7:15:00 AM 24.14 75.452 7.87 4.35 -5
8/4/2022 7:30:00 AM 23.88 74.984 7.86 4.51 -5
8/4/2022 7:45:00 AM 23.76 74.768 7.85 4.25 -5
8/4/2022 8:00:00 AM 24.37 75.866 7.87 3.96 -5
8/4/2022 8:15:00 AM 24.14 75.452 7.88 3.91 -5
8/4/2022 8:30:00 AM 23.88 74.984 7.89 3.83 -5
8/4/2022 8:45:00 AM 23.88 74.984 7.9 3.9 -5
8/4/2022 9:00:00 AM 23.88 74.984 7.9 3.68 -5
8/4/2022 9:15:00 AM 24.51 76.118 7.91 3.64 -5
8/4/2022 9:30:00 AM 24.25 75.65 7.91 3.6 -5
8/4/2022 9:45:00 AM 24.14 75.452 7.92 3.6 -5
8/4/2022 10:00:00 AM 24.13 75.434 7.93 3.59 -5
8/4/2022 10:15:00 AM 24.25 75.65 7.93 3.49 -5
8/4/2022 10:30:00 AM 24.62 76.316 7.93 3.51 -5
8/4/2022 10:45:00 AM 24.37 75.866 7.94 3.58 -5
8/4/2022 11:00:00 AM 24.38 75.884 7.94 3.39 -5
8/4/2022 11:15:00 AM 24.51 76.118 7.94 3.43 -5
8/4/2022 11:30:00 AM 24.51 76.118 7.94 3.39 -5
8/4/2022 11:45:00 AM 24.62 76.316 7.93 3.36 -5
8/4/2022 12:00:00 PM 24.75 76.55 7.94 3.36 -5
8/4/2022 12:15:00 PM 24.75 76.55 7.92 3.33 -5
8/4/2022 12:30:00 PM 24.88 76.784 7.92 3.24 -5
8/4/2022 12:45:00 PM 25.01 77.018 7.92 3.3 -5
8/4/2022 1:00:00 PM 25 77 7.93 3.24 -5
8/4/2022 1:15:00 PM 25.12 77.216 7.93 3.28 -5
8/4/2022 1:30:00 PM 25.25 77.45 7.95 3.24 -5
8/4/2022 1:45:00 PM 25.38 77.684 7.99 3.29 -5
8/4/2022 2:00:00 PM 25.38 77.684 8.01 3.21 -5
8/4/2022 2:15:00 PM 25.49 77.882 8.05 3.34 -5
8/4/2022 2:30:00 PM 25.49 77.882 8.04 3.29 -5
8/4/2022 2:45:00 PM 25.49 77.882 8.09 3.25 -5
8/4/2022 3:00:00 PM 25.49 77.882 8.1 3.08 -5
8/4/2022 3:15:00 PM 25.63 78.134 8.11 3.11 -5
8/4/2022 3:30:00 PM 25.63 78.134 8.11 3.1 -5
8/4/2022 3:45:00 PM 25.75 78.35 8.11 3.13 -5
8/4/2022 4:00:00 PM 25.63 78.134 8.09 3.06 -5
8/4/2022 4:15:00 PM 25.49 77.882 8.06 3.47 -5
8/4/2022 4:30:00 PM 25.25 77.45 8.03 3.53 -5
8/4/2022 4:45:00 PM 25.12 77.216 7.99 3.43 -5
8/4/2022 5:00:00 PM 25.12 77.216 7.98 3.38 -5
8/4/2022 5:15:00 PM 25.12 77.216 7.97 3.19 -5
8/4/2022 5:30:00 PM 25 77 7.96 3.16 -5
8/4/2022 5:45:00 PM 25.01 77.018 7.97 3.13 -5
8/4/2022 6:00:00 PM 25 77 7.97 3.12 -5
8/4/2022 6:15:00 PM 24.88 76.784 7.96 3.22 -5
8/4/2022 6:30:00 PM 24.75 76.55 7.95 3.48 -5
8/4/2022 6:45:00 PM 24.62 76.316 7.96 3.43 -5
8/4/2022 7:00:00 PM 24.62 76.316 7.96 3.42 -5
8/4/2022 7:15:00 PM 24.51 76.118 7.95 3.39 -5
8/4/2022 7:30:00 PM 24.62 76.316 7.94 3.47 -5
8/4/2022 7:45:00 PM 24.62 76.316 7.92 3.44 -5
8/4/2022 8:00:00 PM 24.75 76.55 7.91 3.48 -5
8/4/2022 8:15:00 PM 24.75 76.55 7.9 3.45 -5
8/4/2022 8:30:00 PM 24.75 76.55 7.89 3.4 -5
8/4/2022 8:45:00 PM 24.88 76.784 7.89 3.48 -5
8/4/2022 9:00:00 PM 24.75 76.55 7.89 3.51 -5
8/4/2022 9:15:00 PM 24.75 76.55 7.87 3.62 -5
8/4/2022 9:30:00 PM 24.75 76.55 7.87 3.57 -5
8/4/2022 9:45:00 PM 24.62 76.316 7.86 3.61 -5
8/4/2022 10:00:00 PM 25 77 7.85 3.7 -5
8/4/2022 10:15:00 PM 24.88 76.784 7.84 3.64 -5
8/4/2022 10:30:00 PM 24.62 76.316 7.84 3.66 -5
8/4/2022 10:45:00 PM 24.51 76.118 7.83 3.76 -5
8/4/2022 11:00:00 PM 24.51 76.118 7.81 3.71 -5
8/4/2022 11:15:00 PM 24.37 75.866 7.79 3.82 -5
8/4/2022 11:30:00 PM 24.37 75.866 7.78 3.8 -5
8/4/2022 11:45:00 PM 24.62 76.316 7.78 3.83 -5
8/5/2022 12:00:00 AM 24.62 76.316 7.78 3.95 -5
8/5/2022 12:15:00 AM 24.37 75.866 7.78 3.87 -5
8/5/2022 12:30:00 AM 24.25 75.65 7.79 3.9 -5
8/5/2022 12:45:00 AM 24.25 75.65 7.79 3.89 -5
8/5/2022 1:00:00 AM 24.14 75.452 7.8 3.91 -5
8/5/2022 1:15:00 AM 24.62 76.316 7.81 4.15 -5
8/5/2022 1:30:00 AM 24.25 75.65 7.8 3.95 -5
8/5/2022 1:45:00 AM 23.99 75.182 7.77 3.99 -5
8/5/2022 2:00:00 AM 23.99 75.182 7.77 3.99 -5
8/5/2022 2:15:00 AM 24.37 75.866 7.78 4.03 -5
8/5/2022 2:30:00 AM 24.25 75.65 7.77 4.42 -5
8/5/2022 2:45:00 AM 23.99 75.182 7.76 4.08 -5
8/5/2022 3:00:00 AM 23.88 74.984 7.75 4.1 -5
8/5/2022 3:15:00 AM 23.88 74.984 7.76 4.17 -5
8/5/2022 3:30:00 AM 24.37 75.866 7.77 4.14 -5
8/5/2022 3:45:00 AM 24.14 75.452 7.77 4.41 -5
8/5/2022 4:00:00 AM 23.88 74.984 7.76 4.14 -5
8/5/2022 4:15:00 AM 23.76 74.768 7.76 4.27 -5
8/5/2022 4:30:00 AM 24.25 75.65 7.77 4.2 -5
8/5/2022 4:45:00 AM 23.99 75.182 7.76 4.24 -5
8/5/2022 5:00:00 AM 23.76 74.768 7.76 4.27 -5
8/5/2022 5:15:00 AM 23.99 75.182 7.75 4.22 -5
8/5/2022 5:30:00 AM 24.13 75.434 7.77 4.23 -5
8/5/2022 5:45:00 AM 23.88 74.984 7.77 4.3 -5
8/5/2022 6:00:00 AM 23.62 74.516 7.75 4.34 -5
8/5/2022 6:15:00 AM 24.25 75.65 7.75 4.33 -5
8/5/2022 6:30:00 AM 23.99 75.182 7.75 4.28 -5
8/5/2022 6:45:00 AM 23.76 74.768 7.74 4.24 -5
8/5/2022 7:00:00 AM 23.62 74.516 7.74 4.27 -5
8/5/2022 7:15:00 AM 24.25 75.65 7.73 3.49 -5
8/5/2022 7:30:00 AM 23.88 74.984 7.75 3.44 -5
8/5/2022 7:45:00 AM 23.76 74.768 7.74 3.45 -5
8/5/2022 8:00:00 AM 23.99 75.182 7.75 3.44 -5
8/5/2022 8:15:00 AM 23.99 75.182 7.76 3.29 -5
8/5/2022 8:30:00 AM 23.76 74.768 7.76 3.26 -5
8/5/2022 8:45:00 AM 23.76 74.768 7.77 3.22 -5
8/5/2022 9:00:00 AM 24.14 75.452 7.77 3.19 -5
8/5/2022 9:15:00 AM 23.88 74.984 7.77 3.12 -5
8/5/2022 9:30:00 AM 23.88 74.984 7.77 3.15 -5
8/5/2022 9:45:00 AM 24.51 76.118 7.77 3.05 -5
8/5/2022 10:00:00 AM 24.14 75.452 7.78 3.08 -5
8/5/2022 10:15:00 AM 24.14 75.452 7.79 2.99 -5
8/5/2022 10:30:00 AM 24.74 76.532 7.8 3.03 -5
8/5/2022 10:45:00 AM 24.37 75.866 7.81 3.01 -5
8/5/2022 11:00:00 AM 24.14 75.452 7.82 2.95 -5
8/5/2022 11:15:00 AM 24.75 76.55 7.83 2.93 -5
8/5/2022 11:30:00 AM 24.37 75.866 7.83 2.92 -5
8/5/2022 11:45:00 AM 24.13 75.434 7.83 2.95 -5
8/5/2022 12:00:00 PM 24.51 76.118 7.84 2.97 -5
8/5/2022 12:15:00 PM 24.51 76.118 7.84 2.88 -5
8/5/2022 12:30:00 PM 24.25 75.65 7.84 2.91 -5
8/5/2022 12:45:00 PM 24.25 75.65 7.84 2.91 -5
8/5/2022 1:00:00 PM 24.75 76.55 7.85 2.95 -5
8/5/2022 1:15:00 PM 24.38 75.884 7.86 2.85 -5
8/5/2022 1:30:00 PM 24.25 75.65 7.86 2.86 -5
8/5/2022 1:45:00 PM 24.62 76.316 7.87 2.87 -5
8/5/2022 2:00:00 PM 24.51 76.118 7.87 2.88 -5
8/5/2022 2:15:00 PM 24.37 75.866 7.88 2.82 -5
8/5/2022 2:30:00 PM 24.37 75.866 7.88 2.79 -5
8/5/2022 2:45:00 PM 24.51 76.118 7.87 2.86 -5
8/5/2022 3:00:00 PM 24.88 76.784 7.87 2.83 -5
8/5/2022 3:15:00 PM 25 77 7.88 2.79 -5
8/5/2022 3:30:00 PM 24.88 76.784 7.89 2.79 -5
8/5/2022 3:45:00 PM 24.88 76.784 7.9 2.75 -5
8/5/2022 4:00:00 PM 24.88 76.784 7.9 2.74 -5
8/5/2022 4:15:00 PM 24.88 76.784 7.91 2.8 -5
8/5/2022 4:30:00 PM 25 77 7.92 2.83 -5
8/5/2022 4:45:00 PM 25 77 7.92 2.72 -5
8/5/2022 5:00:00 PM 25.12 77.216 7.91 2.71 -5
8/5/2022 5:15:00 PM 25.12 77.216 7.91 2.68 -5
8/5/2022 5:30:00 PM 25.09 77.162 7.91 2.72 -5
8/5/2022 5:45:00 PM 25.12 77.216 7.91 2.93 -5
8/5/2022 6:00:00 PM 25.12 77.216 7.92 2.8 -5
8/5/2022 6:15:00 PM 25.01 77.018 7.93 2.83 -5
8/5/2022 6:30:00 PM 25.12 77.216 7.93 2.81 -5
8/5/2022 6:45:00 PM 25 77 7.94 2.85 -5
8/5/2022 7:00:00 PM 25 77 7.95 2.95 -5
8/5/2022 7:15:00 PM 24.88 76.784 7.95 2.82 -5
8/5/2022 7:30:00 PM 24.88 76.784 7.95 2.76 -5
8/5/2022 7:45:00 PM 24.88 76.784 7.93 2.79 -5
8/5/2022 8:00:00 PM 24.75 76.55 7.91 3.03 -5
8/5/2022 8:15:00 PM 24.75 76.55 7.9 3.29 -5
8/5/2022 8:30:00 PM 24.75 76.55 7.89 3.11 -5
8/5/2022 8:45:00 PM 24.75 76.55 7.88 3.18 -5
8/5/2022 9:00:00 PM 24.74 76.532 7.87 3.12 -5
8/5/2022 9:15:00 PM 24.75 76.55 7.87 3.22 -5
8/5/2022 9:30:00 PM 24.88 76.784 7.87 3.48 -5
8/5/2022 9:45:00 PM 24.75 76.55 7.86 3.33 -5
8/5/2022 10:00:00 PM 24.75 76.55 7.86 3.3 -5
8/5/2022 10:15:00 PM 24.75 76.55 7.85 3.25 -5
8/5/2022 10:30:00 PM 24.75 76.55 7.84 3.3 -5
8/5/2022 10:45:00 PM 24.75 76.55 7.83 3.4 -5
8/5/2022 11:00:00 PM 24.62 76.316 7.83 3.46 -5
8/5/2022 11:15:00 PM 24.62 76.316 7.83 3.48 -5
8/5/2022 11:30:00 PM 24.62 76.316 7.83 3.49 -5
8/5/2022 11:45:00 PM 24.51 76.118 7.83 3.52 -5
8/6/2022 12:00:00 AM 24.51 76.118 7.83 3.47 -5
8/6/2022 12:15:00 AM 24.51 76.118 7.83 3.53 -5
8/6/2022 12:30:00 AM 24.37 75.866 7.82 3.57 -5
8/6/2022 12:45:00 AM 24.47 76.046 7.82 3.6 -5
8/6/2022 1:00:00 AM 24.37 75.866 7.82 3.58 -5
8/6/2022 1:15:00 AM 25 77 7.83 3.59 -5
8/6/2022 1:30:00 AM 24.51 76.118 7.81 3.58 -5
8/6/2022 1:45:00 AM 24.37 75.866 7.8 3.61 -5
8/6/2022 2:00:00 AM 24.25 75.65 7.8 3.63 -5
8/6/2022 2:15:00 AM 24.25 75.65 7.79 3.77 -5
8/6/2022 2:30:00 AM 24.25 75.65 7.8 3.67 -5
8/6/2022 2:45:00 AM 24.74 76.532 7.83 3.8 -5
8/6/2022 3:00:00 AM 24.37 75.866 7.82 3.69 -5
8/6/2022 3:15:00 AM 24.25 75.65 7.81 3.74 -5
8/6/2022 3:30:00 AM 24.13 75.434 7.81 3.68 -5
8/6/2022 3:45:00 AM 24.25 75.65 7.8 3.71 -5
8/6/2022 4:00:00 AM 24.51 76.118 7.82 3.68 -5
8/6/2022 4:15:00 AM 24.25 75.65 7.81 3.72 -5
8/6/2022 4:30:00 AM 24.13 75.434 7.81 3.74 -5
8/6/2022 4:45:00 AM 23.99 75.182 7.81 3.7 -5
8/6/2022 5:00:00 AM 24.14 75.452 7.81 3.89 -5
8/6/2022 5:15:00 AM 24.43 75.974 7.82 3.81 -5
8/6/2022 5:30:00 AM 24.13 75.434 7.82 3.76 -5
8/6/2022 5:45:00 AM 23.88 74.984 7.81 3.74 -5
8/6/2022 6:00:00 AM 24.37 75.866 7.81 3.78 -5
8/6/2022 6:15:00 AM 23.99 75.182 7.82 3.79 -5
8/6/2022 6:30:00 AM 23.76 74.768 7.81 3.74 -5
8/6/2022 6:45:00 AM 24.25 75.65 7.81 3.77 -5
8/6/2022 7:00:00 AM 24.14 75.452 7.81 3.73 -5
8/6/2022 7:15:00 AM 23.76 74.768 7.81 3.7 -5
8/6/2022 7:30:00 AM 24.37 75.866 7.82 3.75 -5
8/6/2022 7:45:00 AM 23.99 75.182 7.82 3.68 -5
8/6/2022 8:00:00 AM 23.99 75.182 7.83 3.58 -5
8/6/2022 8:15:00 AM 24.37 75.866 7.83 3.58 -5
8/6/2022 8:30:00 AM 23.88 74.984 7.83 3.57 -5
8/6/2022 8:45:00 AM 24.25 75.65 7.84 3.51 -5
8/6/2022 9:00:00 AM 24.13 75.434 7.84 3.47 -5
8/6/2022 9:15:00 AM 23.88 74.984 7.84 3.42 -5
8/6/2022 9:30:00 AM 24.37 75.866 7.84 3.42 -5
8/6/2022 9:45:00 AM 23.99 75.182 7.86 3.32 -5
8/6/2022 10:00:00 AM 24.13 75.434 7.88 3.3 -5
8/6/2022 10:15:00 AM 24.37 75.866 7.88 3.29 -5
8/6/2022 10:30:00 AM 23.99 75.182 7.89 3.24 -5
8/6/2022 10:45:00 AM 24.25 75.65 7.88 3.23 -5
8/6/2022 11:00:00 AM 24.25 75.65 7.9 3.21 -5
8/6/2022 11:15:00 AM 23.99 75.182 7.91 3.24 -5
8/6/2022 11:30:00 AM 24.51 76.118 7.9 3.17 -5
8/6/2022 11:45:00 AM 24.14 75.452 7.91 3.07 -5
8/6/2022 12:00:00 PM 23.88 74.984 7.92 3.11 -5
8/6/2022 12:15:00 PM 24.51 76.118 7.92 3.06 -5
8/6/2022 12:30:00 PM 24.25 75.65 7.93 3.04 -5
8/6/2022 12:45:00 PM 24.13 75.434 7.93 3.14 -5
8/6/2022 1:00:00 PM 24.37 75.866 7.94 3.06 -5
8/6/2022 1:15:00 PM 24.62 76.316 7.93 3.01 -5
8/6/2022 1:30:00 PM 24.51 76.118 7.94 2.95 -5
8/6/2022 1:45:00 PM 23.62 74.516 7.94 2.99 -5
8/6/2022 2:00:00 PM 24.37 75.866 7.94 3.04 -5
8/6/2022 2:15:00 PM 24.13 75.434 7.94 2.9 -5
8/6/2022 2:30:00 PM 23.99 75.182 7.94 2.92 -5
8/6/2022 2:45:00 PM 23.99 75.182 7.95 2.92 -5
8/6/2022 3:00:00 PM 24.37 75.866 7.97 2.89 -5
8/6/2022 3:15:00 PM 24.51 76.118 7.98 2.98 -5
8/6/2022 3:30:00 PM 24.37 75.866 7.97 2.93 -5
8/6/2022 3:45:00 PM 24.51 76.118 7.98 2.88 -5
8/6/2022 4:00:00 PM 24.51 76.118 8 2.87 -5
8/6/2022 4:15:00 PM 24.62 76.316 8 2.92 -5
8/6/2022 4:30:00 PM 24.62 76.316 7.99 2.87 -5
8/6/2022 4:45:00 PM 24.62 76.316 7.99 2.88 -5
8/6/2022 5:00:00 PM 24.51 76.118 8 2.93 -5
8/6/2022 5:15:00 PM 24.75 76.55 8 2.88 -5
8/6/2022 5:30:00 PM 24.51 76.118 8 2.85 -5
8/6/2022 5:45:00 PM 24.62 76.316 8 2.86 -5
8/6/2022 6:00:00 PM 24.62 76.316 8 2.88 -5
8/6/2022 6:15:00 PM 24.62 76.316 8.02 2.92 -5
8/6/2022 6:30:00 PM 24.62 76.316 8.04 2.89 -5
8/6/2022 6:45:00 PM 24.62 76.316 8.05 2.92 -5
8/6/2022 7:00:00 PM 24.75 76.55 8.05 2.93 -5
8/6/2022 7:15:00 PM 24.75 76.55 8.04 2.95 -5
8/6/2022 7:30:00 PM 24.62 76.316 8.03 2.95 -5
8/6/2022 7:45:00 PM 24.62 76.316 8.01 2.99 -5
8/6/2022 8:00:00 PM 24.62 76.316 8 3.02 -5
8/6/2022 8:15:00 PM 24.62 76.316 8 3.43 -5
8/6/2022 8:30:00 PM 24.62 76.316 8 3.03 -5
8/6/2022 8:45:00 PM 24.62 76.316 7.99 3.09 -5
8/6/2022 9:00:00 PM 24.62 76.316 7.99 3.13 -5
8/6/2022 9:15:00 PM 24.62 76.316 7.98 3.19 -5
8/6/2022 9:30:00 PM 24.62 76.316 7.97 3.2 -5
8/6/2022 9:45:00 PM 24.62 76.316 7.96 3.22 -5
8/6/2022 10:00:00 PM 24.51 76.118 7.95 3.28 -5
8/6/2022 10:15:00 PM 24.51 76.118 7.94 3.33 -5
8/6/2022 10:30:00 PM 24.51 76.118 7.93 3.28 -5
8/6/2022 10:45:00 PM 24.51 76.118 7.93 3.3 -5
8/6/2022 11:00:00 PM 24.51 76.118 7.93 3.37 -5
8/6/2022 11:15:00 PM 24.51 76.118 7.92 3.45 -5
8/6/2022 11:30:00 PM 24.62 76.316 7.92 3.49 -5
8/6/2022 11:45:00 PM 24.62 76.316 7.93 3.47 -5
8/7/2022 12:00:00 AM 24.62 76.316 7.93 3.46 -5
8/7/2022 12:15:00 AM 24.62 76.316 7.93 3.5 -5
8/7/2022 12:30:00 AM 24.51 76.118 7.94 3.5 -5
8/7/2022 12:45:00 AM 24.62 76.316 7.95 3.58 -5
8/7/2022 1:00:00 AM 24.51 76.118 7.95 3.56 -5
8/7/2022 1:15:00 AM 24.51 76.118 7.96 3.54 -5
8/7/2022 1:30:00 AM 24.51 76.118 7.95 3.67 -5
8/7/2022 1:45:00 AM 24.51 76.118 7.96 3.64 -5
8/7/2022 2:00:00 AM 24.51 76.118 7.97 3.67 -5
8/7/2022 2:15:00 AM 24.51 76.118 7.97 3.69 -5
8/7/2022 2:30:00 AM 24.37 75.866 7.97 3.69 -5
8/7/2022 2:45:00 AM 24.37 75.866 7.98 3.67 -5
8/7/2022 3:00:00 AM 24.37 75.866 7.99 3.68 -5
8/7/2022 3:15:00 AM 24.25 75.65 8 3.65 -5
8/7/2022 3:30:00 AM 24.25 75.65 8 3.68 -5
8/7/2022 3:45:00 AM 24.13 75.434 8.01 3.71 -5
8/7/2022 4:00:00 AM 24.14 75.452 8.02 3.7 -5
8/7/2022 4:15:00 AM 23.99 75.182 8.02 3.67 -5
8/7/2022 4:30:00 AM 23.99 75.182 8.01 3.7 -5
8/7/2022 4:45:00 AM 23.99 75.182 8 3.73 -5
8/7/2022 5:00:00 AM 23.88 74.984 7.98 3.74 -5
8/7/2022 5:15:00 AM 23.88 74.984 7.97 3.82 -5
8/7/2022 5:30:00 AM 23.88 74.984 7.96 3.77 -5
8/7/2022 5:45:00 AM 24.37 75.866 7.98 3.83 -5
8/7/2022 6:00:00 AM 23.99 75.182 7.97 3.84 -5
8/7/2022 6:15:00 AM 23.88 74.984 7.97 3.81 -5
8/7/2022 6:30:00 AM 23.88 74.984 7.97 3.93 -5
8/7/2022 6:45:00 AM 23.76 74.768 7.97 3.8 -5
8/7/2022 7:00:00 AM 23.76 74.768 7.97 3.73 -5
8/7/2022 7:15:00 AM 23.76 74.768 7.96 3.79 -5
8/7/2022 7:30:00 AM 24.37 75.866 7.97 3.77 -5
8/7/2022 7:45:00 AM 23.99 75.182 7.97 3.88 -5
8/7/2022 8:00:00 AM 23.88 74.984 7.96 3.63 -5
8/7/2022 8:15:00 AM 23.62 74.516 7.96 3.62 -5
8/7/2022 8:30:00 AM 24.25 75.65 7.97 3.58 -5
8/7/2022 8:45:00 AM 23.88 74.984 7.98 3.53 -5
8/7/2022 9:00:00 AM 23.88 74.984 7.99 3.49 -5
8/7/2022 9:15:00 AM 23.88 74.984 7.99 3.39 -5
8/7/2022 9:30:00 AM 24.37 75.866 7.99 3.35 -5
8/7/2022 9:45:00 AM 24.13 75.434 7.99 3.34 -5
8/7/2022 10:00:00 AM 23.99 75.182 8 3.29 -5
8/7/2022 10:15:00 AM 24.13 75.434 8 3.26 -5
8/7/2022 10:30:00 AM 24.51 76.118 8 3.23 -5
8/7/2022 10:45:00 AM 24.62 76.316 8 3.15 -5
8/7/2022 11:00:00 AM 24.51 76.118 8 3.2 -5
8/7/2022 11:15:00 AM 24.51 76.118 8 3.05 -5
8/7/2022 11:30:00 AM 24.51 76.118 8.02 3.04 -5
8/7/2022 11:45:00 AM 24.51 76.118 8.02 3.14 -5
8/7/2022 12:00:00 PM 24.62 76.316 8.02 3.02 -5
8/7/2022 12:15:00 PM 25.25 77.45 8.01 2.97 -5
8/7/2022 12:30:00 PM 25 77 8.02 2.96 -5
8/7/2022 12:45:00 PM 25 77 8.02 2.95 -5
8/7/2022 1:00:00 PM 25 77 8.02 2.97 -5
8/7/2022 1:15:00 PM 25 77 8.01 2.94 -5
8/7/2022 1:30:00 PM 25.01 77.018 8.01 3.44 -5
8/7/2022 1:45:00 PM 25.12 77.216 8 3.02 -5
8/7/2022 2:00:00 PM 25 77 8 2.94 -5
8/7/2022 2:15:00 PM 25 77 8.01 2.94 -5
8/7/2022 2:30:00 PM 25.12 77.216 8.03 2.95 -5
8/7/2022 2:45:00 PM 25.12 77.216 8.03 2.92 -5
8/7/2022 3:00:00 PM 25.12 77.216 8.03 2.88 -5
8/7/2022 3:15:00 PM 25.25 77.45 8.04 2.92 -5
8/7/2022 3:30:00 PM 25.25 77.45 8.09 2.93 -5
8/7/2022 3:45:00 PM 25.38 77.684 8.12 3 -5
8/7/2022 4:00:00 PM 25.49 77.882 8.13 2.91 -5
8/7/2022 4:15:00 PM 25.49 77.882 8.15 2.85 -5
8/7/2022 4:30:00 PM 25.49 77.882 8.13 2.91 -5
8/7/2022 4:45:00 PM 25.49 77.882 8.12 2.91 -5
8/7/2022 5:00:00 PM 25.49 77.882 8.13 2.91 -5
8/7/2022 5:15:00 PM 25.49 77.882 8.12 3 -5
8/7/2022 5:30:00 PM 25.49 77.882 8.12 2.9 -5
8/7/2022 5:45:00 PM 25.49 77.882 8.11 2.97 -5
8/7/2022 6:00:00 PM 25.49 77.882 8.12 2.97 -5
8/7/2022 6:15:00 PM 25.49 77.882 8.12 2.99 -5
8/7/2022 6:30:00 PM 25.63 78.134 8.13 3.1 -5
8/7/2022 6:45:00 PM 25.75 78.35 8.16 2.99 -5
8/7/2022 7:00:00 PM 25.75 78.35 8.19 2.97 -5
8/7/2022 7:15:00 PM 25.75 78.35 8.17 3.07 -5
8/7/2022 7:30:00 PM 25.75 78.35 8.14 3.01 -5
8/7/2022 7:45:00 PM 25.75 78.35 8.12 3.22 -5
8/7/2022 8:00:00 PM 25.63 78.134 8.1 3.04 -5
8/7/2022 8:15:00 PM 25.63 78.134 8.08 3.17 -5
8/7/2022 8:30:00 PM 25.75 78.35 8.06 3.12 -5
8/7/2022 8:45:00 PM 25.75 78.35 8.06 3.16 -5
8/7/2022 9:00:00 PM 25.75 78.35 8.05 3.26 -5
8/7/2022 9:15:00 PM 25.75 78.35 8.04 3.28 -5
8/7/2022 9:30:00 PM 25.75 78.35 8.02 3.33 -5
8/7/2022 9:45:00 PM 25.75 78.35 8.01 3.36 -5
8/7/2022 10:00:00 PM 25.75 78.35 7.99 3.35 -5
8/7/2022 10:15:00 PM 25.75 78.35 7.98 3.44 -5
8/7/2022 10:30:00 PM 25.63 78.134 7.96 3.33 -5
8/7/2022 10:45:00 PM 25.63 78.134 7.95 3.42 -5
8/7/2022 11:00:00 PM 25.63 78.134 7.94 3.51 -5
8/7/2022 11:15:00 PM 25.49 77.882 7.93 3.57 -5
8/7/2022 11:30:00 PM 25.49 77.882 7.92 3.46 -5
8/7/2022 11:45:00 PM 25.38 77.684 7.92 3.5 -5
8/8/2022 12:00:00 AM 25.38 77.684 7.92 3.55 -5
8/8/2022 12:15:00 AM 25.37 77.666 7.92 3.82 -5
8/8/2022 12:30:00 AM 25.37 77.666 7.93 3.67 -5
8/8/2022 12:45:00 AM 25.25 77.45 7.93 3.69 -5
8/8/2022 1:00:00 AM 25.25 77.45 7.93 3.81 -5
8/8/2022 1:15:00 AM 25.25 77.45 7.93 3.71 -5
8/8/2022 1:30:00 AM 25.12 77.216 7.93 4.08 -5
8/8/2022 1:45:00 AM 25.12 77.216 7.93 3.73 -5
8/8/2022 2:00:00 AM 25 77 7.92 3.74 -5
8/8/2022 2:15:00 AM 25 77 7.93 3.77 -5
8/8/2022 2:30:00 AM 25 77 7.93 3.73 -5
8/8/2022 2:45:00 AM 24.88 76.784 7.93 4.11 -5
8/8/2022 3:00:00 AM 24.88 76.784 7.93 3.8 -5
8/8/2022 3:15:00 AM 25.38 77.684 7.93 3.8 -5
8/8/2022 3:30:00 AM 25.12 77.216 7.92 3.86 -5
8/8/2022 3:45:00 AM 24.88 76.784 7.93 3.83 -5
8/8/2022 4:00:00 AM 24.88 76.784 7.93 3.84 -5
8/8/2022 4:15:00 AM 24.75 76.55 7.93 3.84 -5
8/8/2022 4:30:00 AM 24.88 76.784 7.93 3.86 -5
8/8/2022 4:45:00 AM 25.12 77.216 7.93 3.86 -5
8/8/2022 5:00:00 AM 24.75 76.55 7.93 3.83 -5
8/8/2022 5:15:00 AM 24.62 76.316 7.93 3.88 -5
8/8/2022 5:30:00 AM 24.51 76.118 7.93 3.87 -5
8/8/2022 5:45:00 AM 25 77 7.92 3.94 -5
8/8/2022 6:00:00 AM 24.88 76.784 7.91 4.01 -5
8/8/2022 6:15:00 AM 24.51 76.118 7.89 3.99 -5
8/8/2022 6:30:00 AM 24.51 76.118 7.88 4.03 -5
8/8/2022 6:45:00 AM 24.51 76.118 7.87 3.94 -5
8/8/2022 7:00:00 AM 25 77 7.89 3.99 -5
8/8/2022 7:15:00 AM 24.62 76.316 7.92 3.96 -5
8/8/2022 7:30:00 AM 24.37 75.866 7.92 3.83 -5
8/8/2022 7:45:00 AM 24.62 76.316 7.91 3.8 -5
8/8/2022 8:00:00 AM 24.75 76.55 7.92 3.76 -5
8/8/2022 8:15:00 AM 24.37 75.866 7.92 3.77 -5
8/8/2022 8:30:00 AM 24.37 75.866 7.92 3.64 -5
8/8/2022 8:45:00 AM 24.88 76.784 7.93 3.62 -5
8/8/2022 9:00:00 AM 24.62 76.316 7.94 3.53 -5
8/8/2022 9:15:00 AM 24.51 76.118 7.94 3.57 -5
8/8/2022 9:30:00 AM 24.51 76.118 7.95 3.45 -5
8/8/2022 9:45:00 AM 25.01 77.018 7.96 3.45 -5
8/8/2022 10:00:00 AM 24.62 76.316 7.96 3.4 -5
8/8/2022 10:15:00 AM 24.62 76.316 7.97 3.43 -5
8/8/2022 10:30:00 AM 24.62 76.316 7.97 3.33 -5
8/8/2022 10:45:00 AM 24.88 76.784 7.98 3.25 -5
8/8/2022 11:00:00 AM 25.38 77.684 7.98 3.28 -5
8/8/2022 11:15:00 AM 25.12 77.216 7.98 3.19 -5
8/8/2022 11:30:00 AM 25.12 77.216 7.98 3.16 -5
8/8/2022 11:45:00 AM 25.25 77.45 7.97 3.18 -5
8/8/2022 12:00:00 PM 25.25 77.45 7.97 3.17 -5
8/8/2022 12:15:00 PM 25.37 77.666 7.96 3.17 -5
8/8/2022 12:30:00 PM 25.38 77.684 7.96 3.14 -5
8/8/2022 12:45:00 PM 25.49 77.882 7.96 3.12 -5
8/8/2022 1:00:00 PM 25.63 78.134 7.97 3.15 -5
8/8/2022 1:15:00 PM 25.63 78.134 7.98 3.1 -5
8/8/2022 1:30:00 PM 25.75 78.35 8.01 3.09 -5
8/8/2022 1:45:00 PM 25.75 78.35 8.03 3.33 -5
8/8/2022 2:00:00 PM 25.86 78.548 8.02 3.04 -5
8/8/2022 2:15:00 PM 25.86 78.548 8.03 3.06 -5
8/8/2022 2:30:00 PM 26 78.8 8.05 3.08 -5
8/8/2022 2:45:00 PM 26.08 78.944 8.06 3.04 -5
8/8/2022 3:00:00 PM 26.12 79.016 8.07 3.07 -5
8/8/2022 3:15:00 PM 26.12 79.016 8.08 3.07 -5
8/8/2022 3:30:00 PM 26.24 79.232 8.11 3.11 -5
8/8/2022 3:45:00 PM 26.38 79.484 8.15 3.06 -5
8/8/2022 4:00:00 PM 26.49 79.682 8.18 3.13 -5
8/8/2022 4:15:00 PM 26.49 79.682 8.19 3.07 -5
8/8/2022 4:30:00 PM 26.61 79.898 8.2 3.06 -5
8/8/2022 4:45:00 PM 26.61 79.898 8.19 3.1 -5
8/8/2022 5:00:00 PM 26.61 79.898 8.18 3.02 -5
8/8/2022 5:15:00 PM 26.61 79.898 8.19 3.05 -5
8/8/2022 5:30:00 PM 26.38 79.484 8.19 3.02 -5
8/8/2022 5:45:00 PM 26.49 79.682 8.2 3.04 -5
8/8/2022 6:00:00 PM 26.49 79.682 8.21 3.18 -5
8/8/2022 6:15:00 PM 26.49 79.682 8.23 3.14 -5
8/8/2022 6:30:00 PM 26.49 79.682 8.23 3.1 -5
8/8/2022 6:45:00 PM 26.62 79.916 8.22 3.09 -5
8/8/2022 7:00:00 PM 26.61 79.898 8.21 3.08 -5
8/8/2022 7:15:00 PM 26.61 79.898 8.2 3.23 -5
8/8/2022 7:30:00 PM 26.61 79.898 8.17 3.11 -5
8/8/2022 7:45:00 PM 26.61 79.898 8.14 3.15 -5
8/8/2022 8:00:00 PM 26.49 79.682 8.12 3.14 -5
8/8/2022 8:15:00 PM 26.49 79.682 8.09 3.19 -5
8/8/2022 8:30:00 PM 26.49 79.682 8.08 3.36 -5
8/8/2022 8:45:00 PM 26.38 79.484 8.07 3.27 -5
8/8/2022 9:00:00 PM 26.38 79.484 8.05 3.31 -5
8/8/2022 9:15:00 PM 26.24 79.232 8.04 3.37 -5
8/8/2022 9:30:00 PM 26.24 79.232 8.03 3.49 -5
8/8/2022 9:45:00 PM 26.24 79.232 8.03 3.43 -5
8/8/2022 10:00:00 PM 26.24 79.232 8 3.56 -5
8/8/2022 10:15:00 PM 26.32 79.376 7.98 3.5 -5
8/8/2022 10:30:00 PM 26.38 79.484 7.97 3.54 -5
8/8/2022 10:45:00 PM 26.38 79.484 7.96 3.54 -5
8/8/2022 11:00:00 PM 26.38 79.484 7.95 3.66 -5
8/8/2022 11:15:00 PM 26.32 79.376 7.96 3.71 -5
8/8/2022 11:30:00 PM 26.24 79.232 7.95 3.7 -5
8/8/2022 11:45:00 PM 26.24 79.232 7.95 3.74 -5
8/9/2022 12:00:00 AM 26.12 79.016 7.94 3.74 -5
8/9/2022 12:15:00 AM 26.12 79.016 7.95 3.87 -5
8/9/2022 12:30:00 AM 26 78.8 7.95 3.87 -5
8/9/2022 12:45:00 AM 26.01 78.818 7.96 3.87 -5
8/9/2022 1:00:00 AM 26 78.8 7.97 3.89 -5
8/9/2022 1:15:00 AM 25.86 78.548 7.99 3.91 -5
8/9/2022 1:30:00 AM 25.86 78.548 7.99 3.97 -5
8/9/2022 1:45:00 AM 25.86 78.548 8 3.97 -5
8/9/2022 2:00:00 AM 25.75 78.35 7.97 3.94 -5
8/9/2022 2:15:00 AM 25.75 78.35 7.94 3.98 -5
8/9/2022 2:30:00 AM 25.63 78.134 7.93 3.95 -5
8/9/2022 2:45:00 AM 25.63 78.134 7.92 3.95 -5
8/9/2022 3:00:00 AM 25.49 77.882 7.92 3.97 -5
8/9/2022 3:15:00 AM 25.49 77.882 7.91 5.21 -5
8/9/2022 3:30:00 AM 25.49 77.882 7.9 4 -5
8/9/2022 3:45:00 AM 25.49 77.882 7.9 3.95 -5
8/9/2022 4:00:00 AM 25.37 77.666 7.89 4 -5
8/9/2022 4:15:00 AM 25.37 77.666 7.88 4.06 -5
8/9/2022 4:30:00 AM 25.38 77.684 7.88 4.05 -5
8/9/2022 4:45:00 AM 25.25 77.45 7.88 4.14 -5
8/9/2022 5:00:00 AM 25.25 77.45 7.87 4.07 -5
8/9/2022 5:15:00 AM 25.25 77.45 7.87 4.06 -5
8/9/2022 5:30:00 AM 25.25 77.45 7.87 4.09 -5
8/9/2022 5:45:00 AM 25.25 77.45 7.86 4.18 -5
8/9/2022 6:00:00 AM 25.25 77.45 7.85 4.29 -5
8/9/2022 6:15:00 AM 25.25 77.45 7.85 4.2 -5
8/9/2022 6:30:00 AM 25.25 77.45 7.85 4.15 -5
8/9/2022 6:45:00 AM 25.25 77.45 7.84 4.14 -5
8/9/2022 7:00:00 AM 25.25 77.45 7.84 4.1 -5
8/9/2022 7:15:00 AM 25.25 77.45 7.84 4.23 -5
8/9/2022 7:30:00 AM 25.25 77.45 7.83 4.08 -5
8/9/2022 7:45:00 AM 25.25 77.45 7.84 4.04 -5
8/9/2022 8:00:00 AM 25.25 77.45 7.84 3.95 -5
8/9/2022 8:15:00 AM 25.25 77.45 7.85 3.86 -5
8/9/2022 8:30:00 AM 25.25 77.45 7.87 3.89 -5
8/9/2022 8:45:00 AM 25.25 77.45 7.86 3.81 -5
8/9/2022 9:00:00 AM 25.25 77.45 7.88 3.77 -5
8/9/2022 9:15:00 AM 25.38 77.684 7.89 3.67 -5
8/9/2022 9:30:00 AM 25.38 77.684 7.89 3.63 -5
8/9/2022 9:45:00 AM 25.49 77.882 7.9 3.64 -5
8/9/2022 10:00:00 AM 25.57 78.026 7.9 3.54 -5
8/9/2022 10:15:00 AM 25.63 78.134 7.9 3.55 -5
8/9/2022 10:30:00 AM 25.63 78.134 7.9 3.59 -5
8/9/2022 10:45:00 AM 25.63 78.134 7.89 3.44 -5
8/9/2022 11:00:00 AM 25.75 78.35 7.9 3.43 -5
8/9/2022 11:15:00 AM 25.75 78.35 7.9 3.39 -5
8/9/2022 11:30:00 AM 25.75 78.35 7.91 3.38 -5
8/9/2022 11:45:00 AM 25.86 78.548 7.91 3.43 -5
8/9/2022 12:00:00 PM 26 78.8 7.9 3.34 -5
8/9/2022 12:15:00 PM 26 78.8 7.91 3.27 -5
8/9/2022 12:30:00 PM 26 78.8 7.9 3.29 -5
8/9/2022 12:45:00 PM 26 78.8 7.9 3.23 -5
8/9/2022 1:00:00 PM 26.12 79.016 7.9 3.39 -5
8/9/2022 1:15:00 PM 26.11 78.998 7.9 3.31 -5
8/9/2022 1:30:00 PM 26.12 79.016 7.91 3.25 -5
8/9/2022 1:45:00 PM 26.24 79.232 7.91 3.29 -5
8/9/2022 2:00:00 PM 26.24 79.232 7.91 3.27 -5
8/9/2022 2:15:00 PM 26.38 79.484 7.91 3.3 -5
8/9/2022 2:30:00 PM 26.38 79.484 7.9 3.22 -5
8/9/2022 2:45:00 PM 26.49 79.682 7.93 3.23 -5
8/9/2022 3:00:00 PM 26.62 79.916 7.95 3.21 -5
8/9/2022 3:15:00 PM 26.62 79.916 7.98 3.16 -5
8/9/2022 3:30:00 PM 26.61 79.898 7.97 3.2 -5
8/9/2022 3:45:00 PM 26.49 79.682 7.97 3.27 -5
8/9/2022 4:00:00 PM 26.49 79.682 7.96 3.28 -5
8/9/2022 4:15:00 PM 26.75 80.15 7.97 3.23 -5
8/9/2022 4:30:00 PM 26.74 80.132 8.02 3.26 -5
8/9/2022 4:45:00 PM 26.49 79.682 8.02 3.23 -5
8/9/2022 5:00:00 PM 26.38 79.484 7.99 4.68 -5
8/9/2022 5:15:00 PM 26.12 79.016 7.97 4.26 -5
8/9/2022 5:30:00 PM 26.12 79.016 7.97 3.51 -5
8/9/2022 5:45:00 PM 26.12 79.016 7.98 3.34 -5
8/9/2022 6:00:00 PM 26.12 79.016 8.01 3.28 -5
8/9/2022 6:15:00 PM 26.11 78.998 8.01 3.3 -5
8/9/2022 6:30:00 PM 26 78.8 7.99 3.35 -5
8/9/2022 6:45:00 PM 26 78.8 7.98 3.71 -5
8/9/2022 7:00:00 PM 26 78.8 7.97 3.56 -5
8/9/2022 7:15:00 PM 25.86 78.548 7.97 3.56 -5
8/9/2022 7:30:00 PM 25.86 78.548 7.96 3.6 -5
8/9/2022 7:45:00 PM 25.86 78.548 7.95 3.51 -5
8/9/2022 8:00:00 PM 25.86 78.548 7.95 3.47 -5
8/9/2022 8:15:00 PM 25.86 78.548 7.95 3.48 -5
8/9/2022 8:30:00 PM 25.86 78.548 7.95 3.46 -5
8/9/2022 8:45:00 PM 25.86 78.548 7.93 3.6 -5
8/9/2022 9:00:00 PM 25.86 78.548 7.92 3.58 -5
8/9/2022 9:15:00 PM 25.86 78.548 7.92 3.69 -5
8/9/2022 9:30:00 PM 25.75 78.35 7.9 3.75 -5
8/9/2022 9:45:00 PM 25.75 78.35 7.9 3.82 -5
8/9/2022 10:00:00 PM 25.75 78.35 7.88 3.89 -5
8/9/2022 10:15:00 PM 25.75 78.35 7.88 3.87 -5
8/9/2022 10:30:00 PM 25.75 78.35 7.88 4.01 -5
8/9/2022 10:45:00 PM 25.63 78.134 7.9 4.03 -5
8/9/2022 11:00:00 PM 25.63 78.134 7.9 4.14 -5
8/9/2022 11:15:00 PM 25.63 78.134 7.9 4.18 -5
8/9/2022 11:30:00 PM 25.63 78.134 7.9 4.27 -5
8/9/2022 11:45:00 PM 25.63 78.134 7.9 4.34 -5
8/10/2022 12:00:00 AM 25.49 77.882 7.9 4.26 -5
8/10/2022 12:15:00 AM 25.49 77.882 7.89 4.3 -5
8/10/2022 12:30:00 AM 25.49 77.882 7.87 4.34 -5
8/10/2022 12:45:00 AM 25.49 77.882 7.85 4.39 -5
8/10/2022 1:00:00 AM 25.38 77.684 7.84 4.43 -5
8/10/2022 1:15:00 AM 25.37 77.666 7.83 4.41 -5
8/10/2022 1:30:00 AM 25.38 77.684 7.82 4.43 -5
8/10/2022 1:45:00 AM 25.37 77.666 7.82 4.57 -5
8/10/2022 2:00:00 AM 25.38 77.684 7.81 4.47 -5
8/10/2022 2:15:00 AM 25.25 77.45 7.8 4.46 -5
8/10/2022 2:30:00 AM 25.25 77.45 7.79 4.68 -5
8/10/2022 2:45:00 AM 25.25 77.45 7.79 4.64 -5
8/10/2022 3:00:00 AM 25.25 77.45 7.79 4.55 -5
8/10/2022 3:15:00 AM 25.12 77.216 7.79 4.55 -5
8/10/2022 3:30:00 AM 25.12 77.216 7.79 4.58 -5
8/10/2022 3:45:00 AM 25.12 77.216 7.78 4.57 -5
8/10/2022 4:00:00 AM 25 77 7.78 4.58 -5
8/10/2022 4:15:00 AM 25.63 78.134 7.79 4.66 -5
8/10/2022 4:30:00 AM 25.25 77.45 7.77 4.58 -5
8/10/2022 4:45:00 AM 25.12 77.216 7.75 4.56 -5
8/10/2022 5:00:00 AM 25 77 7.75 4.56 -5
8/10/2022 5:15:00 AM 25 77 7.75 4.58 -5
8/10/2022 5:30:00 AM 24.88 76.784 7.76 4.74 -5
8/10/2022 5:45:00 AM 25.38 77.684 7.78 4.67 -5
8/10/2022 6:00:00 AM 25.25 77.45 7.76 4.75 -5
8/10/2022 6:15:00 AM 24.88 76.784 7.74 4.76 -5
8/10/2022 6:30:00 AM 24.75 76.55 7.73 4.69 -5
8/10/2022 6:45:00 AM 24.75 76.55 7.73 4.88 -5
8/10/2022 7:00:00 AM 24.75 76.55 7.74 4.64 -5
8/10/2022 7:15:00 AM 25.12 77.216 7.75 4.62 -5
8/10/2022 7:30:00 AM 24.75 76.55 7.8 3.53 -5
8/10/2022 7:45:00 AM 24.51 76.118 7.82 3.39 -5
8/10/2022 8:00:00 AM 24.51 76.118 7.81 3.41 -5
8/10/2022 8:15:00 AM 25 77 7.8 3.29 -5
8/10/2022 8:30:00 AM 24.51 76.118 7.8 3.4 -5
8/10/2022 8:45:00 AM 24.37 75.866 7.79 3.24 -5
8/10/2022 9:00:00 AM 24.88 76.784 7.79 3.15 -5
8/10/2022 9:15:00 AM 24.63 76.334 7.8 3.1 -5
8/10/2022 9:30:00 AM 24.37 75.866 7.81 3.08 -5
8/10/2022 9:45:00 AM 24.62 76.316 7.82 3.14 -5
8/10/2022 10:00:00 AM 24.75 76.55 7.82 3.03 -5
8/10/2022 10:15:00 AM 24.37 75.866 7.83 2.98 -5
8/10/2022 10:30:00 AM 24.75 76.55 7.83 2.96 -5
8/10/2022 10:45:00 AM 24.51 76.118 7.84 2.94 -5
8/10/2022 11:00:00 AM 24.25 75.65 7.84 2.88 -5
8/10/2022 11:15:00 AM 24.14 75.452 7.85 2.85 -5
8/10/2022 11:30:00 AM 24.75 76.55 7.86 2.88 -5
8/10/2022 11:45:00 AM 24.37 75.866 7.88 2.87 -5
8/10/2022 12:00:00 PM 24.25 75.65 7.88 2.84 -5
8/10/2022 12:15:00 PM 24.88 76.784 7.87 2.92 -5
8/10/2022 12:30:00 PM 24.75 76.55 7.88 2.89 -5
8/10/2022 12:45:00 PM 24.62 76.316 7.9 2.92 -5
8/10/2022 1:00:00 PM 24.87 76.766 7.91 2.9 -5
8/10/2022 1:15:00 PM 25.12 77.216 7.92 2.83 -5
8/10/2022 1:30:00 PM 24.75 76.55 7.92 2.84 -5
8/10/2022 1:45:00 PM 24.75 76.55 7.92 2.85 -5
8/10/2022 2:00:00 PM 24.75 76.55 7.94 2.87 -5
8/10/2022 2:15:00 PM 25.49 77.882 7.94 2.8 -5
8/10/2022 2:30:00 PM 25.25 77.45 7.98 2.8 -5
8/10/2022 2:45:00 PM 25.25 77.45 7.99 2.84 -5
8/10/2022 3:00:00 PM 25.38 77.684 8.02 2.91 -5
8/10/2022 3:15:00 PM 25.49 77.882 8.05 2.89 -5
8/10/2022 3:30:00 PM 25.63 78.134 8.06 2.87 -5
8/10/2022 3:45:00 PM 26.12 79.016 8.08 2.87 -5
8/10/2022 4:00:00 PM 25.86 78.548 8.1 2.86 -5
8/10/2022 4:15:00 PM 25.86 78.548 8.11 2.93 -5
8/10/2022 4:30:00 PM 25.86 78.548 8.13 2.92 -5
8/10/2022 4:45:00 PM 25.75 78.35 8.14 2.98 -5
8/10/2022 5:00:00 PM 25.86 78.548 8.14 2.88 -5
8/10/2022 5:15:00 PM 25.86 78.548 8.13 2.89 -5
8/10/2022 5:30:00 PM 25.75 78.35 8.12 2.96 -5
8/10/2022 5:45:00 PM 25.75 78.35 8.12 2.98 -5
8/10/2022 6:00:00 PM 25.63 78.134 8.11 2.9 -5
8/10/2022 6:15:00 PM 25.63 78.134 8.1 2.93 -5
8/10/2022 6:30:00 PM 25.63 78.134 8.08 2.95 -5
8/10/2022 6:45:00 PM 25.63 78.134 8.07 2.97 -5
8/10/2022 7:00:00 PM 25.63 78.134 8.04 2.97 -5
8/10/2022 7:15:00 PM 25.49 77.882 8.05 3.02 -5
8/10/2022 7:30:00 PM 25.49 77.882 8.03 3.08 -5
8/10/2022 7:45:00 PM 25.38 77.684 8.02 3.06 -5
8/10/2022 8:00:00 PM 25.25 77.45 8.01 3.09 -5
8/10/2022 8:15:00 PM 25.25 77.45 8 3.13 -5
8/10/2022 8:30:00 PM 25.25 77.45 7.99 3.2 -5
8/10/2022 8:45:00 PM 25.25 77.45 7.99 3.27 -5
8/10/2022 9:00:00 PM 25.25 77.45 7.98 3.29 -5
8/10/2022 9:15:00 PM 25.25 77.45 7.95 3.4 -5
8/10/2022 9:30:00 PM 25.25 77.45 7.96 3.48 -5
8/10/2022 9:45:00 PM 25.25 77.45 7.94 3.53 -5
8/10/2022 10:00:00 PM 25.25 77.45 7.95 3.62 -5
8/10/2022 10:15:00 PM 25.25 77.45 7.93 3.58 -5
8/10/2022 10:30:00 PM 25.25 77.45 7.93 3.67 -5
8/10/2022 10:45:00 PM 25.12 77.216 7.94 3.84 -5
8/10/2022 11:00:00 PM 25.12 77.216 7.96 3.81 -5
8/10/2022 11:15:00 PM 25.12 77.216 7.97 4.05 -5
8/10/2022 11:30:00 PM 25 77 7.95 3.93 -5
8/10/2022 11:45:00 PM 24.88 76.784 7.92 3.99 -5
8/11/2022 12:00:00 AM 24.88 76.784 7.92 4.08 -5
8/11/2022 12:15:00 AM 24.88 76.784 7.92 3.97 -5
8/11/2022 12:30:00 AM 24.75 76.55 7.9 4.26 -5
8/11/2022 12:45:00 AM 24.75 76.55 7.91 4.05 -5
8/11/2022 1:00:00 AM 24.62 76.316 7.9 4.09 -5
8/11/2022 1:15:00 AM 24.62 76.316 7.91 4.16 -5
8/11/2022 1:30:00 AM 25 77 7.91 4.15 -5
8/11/2022 1:45:00 AM 25 77 7.91 4.44 -5
8/11/2022 2:00:00 AM 24.75 76.55 7.91 4.17 -5
8/11/2022 2:15:00 AM 24.62 76.316 7.9 4.17 -5
8/11/2022 2:30:00 AM 24.62 76.316 7.9 4.15 -5
8/11/2022 2:45:00 AM 24.51 76.118 7.91 4.24 -5
8/11/2022 3:00:00 AM 24.51 76.118 7.9 4.41 -5
8/11/2022 3:15:00 AM 24.51 76.118 7.9 4.13 -5
8/11/2022 3:30:00 AM 24.51 76.118 7.88 4.21 -5
8/11/2022 3:45:00 AM 24.37 75.866 7.89 4.21 -5
8/11/2022 4:00:00 AM 25 77 7.9 4.13 -5
8/11/2022 4:15:00 AM 24.62 76.316 7.89 4.21 -5
8/11/2022 4:30:00 AM 24.51 76.118 7.87 4.26 -5
8/11/2022 4:45:00 AM 24.37 75.866 7.86 4.32 -5
8/11/2022 5:00:00 AM 24.37 75.866 7.85 4.28 -5
8/11/2022 5:15:00 AM 24.37 75.866 7.85 4.32 -5
8/11/2022 5:30:00 AM 24.75 76.55 7.85 4.4 -5
8/11/2022 5:45:00 AM 24.62 76.316 7.84 4.41 -5
8/11/2022 6:00:00 AM 24.37 75.866 7.83 4.45 -5
8/11/2022 6:15:00 AM 24.25 75.65 7.83 4.47 -5
8/11/2022 6:30:00 AM 24.25 75.65 7.82 4.48 -5
8/11/2022 6:45:00 AM 24.62 76.316 7.82 4.39 -5
8/11/2022 7:00:00 AM 24.25 75.65 7.82 4.41 -5
8/11/2022 7:15:00 AM 24.13 75.434 7.83 4.35 -5
8/11/2022 7:30:00 AM 24.37 75.866 7.85 4.27 -5
8/11/2022 7:45:00 AM 24.51 76.118 7.86 4.13 -5
8/11/2022 8:00:00 AM 24.13 75.434 7.85 4.05 -5
8/11/2022 8:15:00 AM 23.99 75.182 7.85 3.97 -5
8/11/2022 8:30:00 AM 24.62 76.316 7.87 3.83 -5
8/11/2022 8:45:00 AM 24.37 75.866 7.88 3.77 -5
8/11/2022 9:00:00 AM 23.99 75.182 7.89 3.66 -5
8/11/2022 9:15:00 AM 23.99 75.182 7.9 3.61 -5
8/11/2022 9:30:00 AM 24.62 76.316 7.91 3.56 -5
8/11/2022 9:45:00 AM 24.13 75.434 7.91 3.52 -5
8/11/2022 10:00:00 AM 23.99 75.182 7.92 3.54 -5
8/11/2022 10:15:00 AM 24.62 76.316 7.93 3.47 -5
8/11/2022 10:30:00 AM 24.51 76.118 7.93 3.42 -5
8/11/2022 10:45:00 AM 24.25 75.65 7.94 3.41 -5
8/11/2022 11:00:00 AM 24.62 76.316 7.94 3.39 -5
8/11/2022 11:15:00 AM 24.75 76.55 7.94 3.34 -5
8/11/2022 11:30:00 AM 24.51 76.118 7.94 3.22 -5
8/11/2022 11:45:00 AM 24.37 75.866 7.96 3.31 -5
8/11/2022 12:00:00 PM 25 77 7.95 3.32 -5
8/11/2022 12:15:00 PM 24.62 76.316 7.95 3.42 -5
8/11/2022 12:30:00 PM 24.62 76.316 7.94 3.27 -5
8/11/2022 12:45:00 PM 24.62 76.316 7.94 3.28 -5
8/11/2022 1:00:00 PM 25.25 77.45 7.95 3.22 -5
8/11/2022 1:15:00 PM 25.12 77.216 7.94 4.71 -5
8/11/2022 1:30:00 PM 25 77 7.95 3.4 -5
8/11/2022 1:45:00 PM 25 77 7.95 3.26 -5
8/11/2022 2:00:00 PM 25.01 77.018 7.97 3.22 -5
8/11/2022 2:15:00 PM 25 77 7.96 3.18 -5
8/11/2022 2:30:00 PM 25.01 77.018 7.99 3.24 -5
8/11/2022 2:45:00 PM 25.25 77.45 7.99 3.12 -5
8/11/2022 3:00:00 PM 25.63 78.134 8.01 3.22 -5
8/11/2022 3:15:00 PM 25.49 77.882 8.03 3.09 -5
8/11/2022 3:30:00 PM 25.49 77.882 8.06 3.05 -5
8/11/2022 3:45:00 PM 25.49 77.882 8.08 3.1 -5
8/11/2022 4:00:00 PM 25.49 77.882 8.1 3.03 -5
8/11/2022 4:15:00 PM 25.49 77.882 8.1 3.06 -5
8/11/2022 4:30:00 PM 25.49 77.882 8.11 3.06 -5
8/11/2022 4:45:00 PM 25.49 77.882 8.12 2.97 -5
8/11/2022 5:00:00 PM 25.63 78.134 8.13 3.09 -5
8/11/2022 5:15:00 PM 25.49 77.882 8.13 3.03 -5
8/11/2022 5:30:00 PM 25.49 77.882 8.13 2.99 -5
8/11/2022 5:45:00 PM 25.49 77.882 8.12 3.04 -5
8/11/2022 6:00:00 PM 25.38 77.684 8.12 3.06 -5
8/11/2022 6:15:00 PM 25.38 77.684 8.09 3.33 -5
8/11/2022 6:30:00 PM 25.25 77.45 8.08 3.09 -5
8/11/2022 6:45:00 PM 25.25 77.45 8.08 3.08 -5
8/11/2022 7:00:00 PM 25.38 77.684 8.07 3.06 -5
8/11/2022 7:15:00 PM 25.25 77.45 8.05 3.08 -5
8/11/2022 7:30:00 PM 25.12 77.216 8.06 3.18 -5
8/11/2022 7:45:00 PM 25 77 8.05 3.1 -5
8/11/2022 8:00:00 PM 24.88 76.784 8.04 3.12 -5
8/11/2022 8:15:00 PM 24.88 76.784 8.03 3.17 -5
8/11/2022 8:30:00 PM 24.88 76.784 8.04 3.21 -5
8/11/2022 8:45:00 PM 24.88 76.784 8.04 3.39 -5
8/11/2022 9:00:00 PM 24.75 76.55 8.05 3.38 -5
8/11/2022 9:15:00 PM 24.75 76.55 8.03 3.44 -5
8/11/2022 9:30:00 PM 24.62 76.316 8.06 3.53 -5
8/11/2022 9:45:00 PM 24.62 76.316 8.06 3.55 -5
8/11/2022 10:00:00 PM 24.62 76.316 8.04 3.6 -5
8/11/2022 10:15:00 PM 24.62 76.316 8.02 3.59 -5
8/11/2022 10:30:00 PM 24.51 76.118 7.99 3.66 -5
8/11/2022 10:45:00 PM 24.51 76.118 7.99 3.72 -5
8/11/2022 11:00:00 PM 24.51 76.118 7.99 3.83 -5
8/11/2022 11:15:00 PM 24.51 76.118 7.98 3.85 -5
8/11/2022 11:30:00 PM 24.37 75.866 7.98 3.88 -5
8/11/2022 11:45:00 PM 24.37 75.866 7.98 4.04 -5
8/12/2022 12:00:00 AM 24.25 75.65 7.98 3.91 -5
8/12/2022 12:15:00 AM 24.25 75.65 7.96 3.82 -5
8/12/2022 12:30:00 AM 24.25 75.65 7.96 3.83 -5
8/12/2022 12:45:00 AM 24.13 75.434 7.95 3.89 -5
8/12/2022 1:00:00 AM 23.99 75.182 7.94 3.88 -5
8/12/2022 1:15:00 AM 23.99 75.182 7.94 3.89 -5
8/12/2022 1:30:00 AM 23.99 75.182 7.92 3.89 -5
8/12/2022 1:45:00 AM 23.88 74.984 7.92 3.9 -5
8/12/2022 2:00:00 AM 23.76 74.768 7.93 4 -5
8/12/2022 2:15:00 AM 23.76 74.768 7.94 4.03 -5
8/12/2022 2:30:00 AM 23.62 74.516 7.95 3.98 -5
8/12/2022 2:45:00 AM 23.62 74.516 7.95 3.98 -5
8/12/2022 3:00:00 AM 24.13 75.434 7.96 3.96 -5
8/12/2022 3:15:00 AM 24.14 75.452 7.95 4 -5
8/12/2022 3:30:00 AM 23.76 74.768 7.97 3.98 -5
8/12/2022 3:45:00 AM 23.62 74.516 7.96 4.04 -5
8/12/2022 4:00:00 AM 23.62 74.516 7.95 4.02 -5
8/12/2022 4:15:00 AM 24.25 75.65 7.96 4.04 -5
8/12/2022 4:30:00 AM 23.77 74.786 7.93 4.12 -5
8/12/2022 4:45:00 AM 23.57 74.426 7.92 4.03 -5
8/12/2022 5:00:00 AM 23.39 74.102 7.92 4.08 -5
8/12/2022 5:15:00 AM 24.14 75.452 7.93 4.09 -5
8/12/2022 5:30:00 AM 23.62 74.516 7.92 4.11 -5
8/12/2022 5:45:00 AM 23.48 74.264 7.92 4.17 -5
8/12/2022 6:00:00 AM 23.62 74.516 7.91 4.21 -5
8/12/2022 6:15:00 AM 23.88 74.984 7.91 4.29 -5
8/12/2022 6:30:00 AM 23.5 74.3 7.9 4.23 -5
8/12/2022 6:45:00 AM 23.39 74.102 7.89 4.16 -5
8/12/2022 7:00:00 AM 23.88 74.984 7.9 4.14 -5
8/12/2022 7:15:00 AM 23.39 74.102 7.89 4.03 -5
8/12/2022 7:30:00 AM 23.5 74.3 7.88 3.93 -5
8/12/2022 7:45:00 AM 23.62 74.516 7.89 3.85 -5
8/12/2022 8:00:00 AM 23.25 73.85 7.88 3.9 -5
8/12/2022 8:15:00 AM 23.77 74.786 7.9 3.84 -5
8/12/2022 8:30:00 AM 23.13 73.634 7.91 3.78 -5
8/12/2022 8:45:00 AM 23.76 74.768 7.91 3.66 -5
8/12/2022 9:00:00 AM 23.24 73.832 7.92 3.61 -5
8/12/2022 9:15:00 AM 23.5 74.3 7.93 3.55 -5
8/12/2022 9:30:00 AM 23.39 74.102 7.95 3.59 -5
8/12/2022 9:45:00 AM 23.13 73.634 7.98 3.43 -5
8/12/2022 10:00:00 AM 23.62 74.516 8 3.42 -5
8/12/2022 10:15:00 AM 23.13 73.634 8 3.35 -5
8/12/2022 10:30:00 AM 23.62 74.516 8.02 3.35 -5
8/12/2022 10:45:00 AM 23.39 74.102 8.02 3.37 -5
8/12/2022 11:00:00 AM 23.38 74.084 8.03 3.28 -5
8/12/2022 11:15:00 AM 23.77 74.786 8.04 3.25 -5
8/12/2022 11:30:00 AM 23.39 74.102 8.04 3.25 -5
8/12/2022 11:45:00 AM 23.88 74.984 8.02 3.26 -5
8/12/2022 12:00:00 PM 23.76 74.768 8.02 3.33 -5
8/12/2022 12:15:00 PM 23.5 74.3 8.02 3.19 -5
8/12/2022 12:30:00 PM 24.14 75.452 8.01 3.18 -5
8/12/2022 12:45:00 PM 23.76 74.768 8.02 3.2 -5
8/12/2022 1:00:00 PM 23.62 74.516 8 3.19 -5
8/12/2022 1:15:00 PM 24.25 75.65 8 3.28 -5
8/12/2022 1:30:00 PM 23.76 74.768 8 3.11 -5
8/12/2022 1:45:00 PM 23.88 74.984 8 3.12 -5
8/12/2022 2:00:00 PM 24.25 75.65 8.01 3.08 -5
8/12/2022 2:15:00 PM 23.88 74.984 8 3.01 -5
8/12/2022 2:30:00 PM 24.14 75.452 8 2.97 -5
8/12/2022 2:45:00 PM 24.37 75.866 8 2.95 -5
8/12/2022 3:00:00 PM 24.13 75.434 8 2.96 -5
8/12/2022 3:15:00 PM 24.13 75.434 7.99 2.96 -5
8/12/2022 3:30:00 PM 24.62 76.316 8 2.93 -5
8/12/2022 3:45:00 PM 24.37 75.866 8.01 2.91 -5
8/12/2022 4:00:00 PM 24.25 75.65 8.03 2.93 -5
8/12/2022 4:15:00 PM 24.51 76.118 8.03 2.89 -5
8/12/2022 4:30:00 PM 24.62 76.316 8.05 2.88 -5
8/12/2022 4:45:00 PM 24.37 75.866 8.06 2.87 -5
8/12/2022 5:00:00 PM 24.37 75.866 8.09 2.91 -5
8/12/2022 5:15:00 PM 24.51 76.118 8.09 2.98 -5
8/12/2022 5:30:00 PM 24.75 76.55 8.07 2.89 -5
8/12/2022 5:45:00 PM 24.51 76.118 8.09 2.87 -5
8/12/2022 6:00:00 PM 24.25 75.65 8.08 2.84 -5
8/12/2022 6:15:00 PM 24.25 75.65 8.08 2.89 -5
8/12/2022 6:30:00 PM 24.37 75.866 8.08 2.89 -5
8/12/2022 6:45:00 PM 24.62 76.316 8.07 2.87 -5
8/12/2022 7:00:00 PM 24.25 75.65 8.06 2.88 -5
8/12/2022 7:15:00 PM 24.13 75.434 8.05 2.9 -5
8/12/2022 7:30:00 PM 24.25 75.65 8.05 2.88 -5
8/12/2022 7:45:00 PM 24.51 76.118 8.04 2.91 -5
8/12/2022 8:00:00 PM 23.99 75.182 8.03 2.92 -5
8/12/2022 8:15:00 PM 23.88 74.984 8.03 2.93 -5
8/12/2022 8:30:00 PM 24.13 75.434 8.02 2.94 -5
8/12/2022 8:45:00 PM 24.14 75.452 8 3.07 -5
8/12/2022 9:00:00 PM 23.76 74.768 8.02 3.06 -5
8/12/2022 9:15:00 PM 23.62 74.516 8.02 3.13 -5
8/12/2022 9:30:00 PM 24.25 75.65 8.02 3.2 -5
8/12/2022 9:45:00 PM 23.76 74.768 8.02 3.22 -5
8/12/2022 10:00:00 PM 23.5 74.3 8.01 3.27 -5
8/12/2022 10:15:00 PM 23.76 74.768 8.02 3.28 -5
8/12/2022 10:30:00 PM 23.88 74.984 8.02 3.29 -5
8/12/2022 10:45:00 PM 23.5 74.3 8 3.38 -5
8/12/2022 11:00:00 PM 23.5 74.3 7.94 3.41 -5
8/12/2022 11:15:00 PM 23.88 74.984 7.93 3.37 -5
8/12/2022 11:30:00 PM 23.39 74.102 7.93 3.52 -5
8/12/2022 11:45:00 PM 23.5 74.3 7.94 3.46 -5
8/13/2022 12:00:00 AM 23.5 74.3 7.93 3.54 -5
8/13/2022 12:15:00 AM 23.13 73.634 7.93 3.54 -5
8/13/2022 12:30:00 AM 23.62 74.516 7.95 3.53 -5
8/13/2022 12:45:00 AM 23.25 73.85 7.93 3.52 -5
8/13/2022 1:00:00 AM 23.13 73.634 7.95 3.56 -5
8/13/2022 1:15:00 AM 23.39 74.102 7.95 3.59 -5
8/13/2022 1:30:00 AM 22.87 73.166 7.93 3.56 -5
8/13/2022 1:45:00 AM 23.44 74.192 7.93 3.63 -5
8/13/2022 2:00:00 AM 23 73.4 7.92 3.65 -5
8/13/2022 2:15:00 AM 23 73.4 7.92 3.63 -5
8/13/2022 2:30:00 AM 23.13 73.634 7.93 3.65 -5
8/13/2022 2:45:00 AM 22.63 72.734 7.92 3.68 -5
8/13/2022 3:00:00 AM 23.25 73.85 7.92 3.66 -5
8/13/2022 3:15:00 AM 22.63 72.734 7.91 3.73 -5
8/13/2022 3:30:00 AM 22.87 73.166 7.92 3.76 -5
8/13/2022 3:45:00 AM 22.75 72.95 7.91 3.74 -5
8/13/2022 4:00:00 AM 22.5 72.5 7.9 3.71 -5
8/13/2022 4:15:00 AM 22.87 73.166 7.92 3.73 -5
8/13/2022 4:30:00 AM 22.25 72.05 7.92 3.85 -5
8/13/2022 4:45:00 AM 22.75 72.95 7.91 3.82 -5
8/13/2022 5:00:00 AM 22.37 72.266 7.91 3.71 -5
8/13/2022 5:15:00 AM 22.37 72.266 7.9 3.81 -5
8/13/2022 5:30:00 AM 22.42 72.356 7.9 3.72 -5
8/13/2022 5:45:00 AM 21.99 71.582 7.89 3.96 -5
8/13/2022 6:00:00 AM 22.5 72.5 7.91 3.81 -5
8/13/2022 6:15:00 AM 21.99 71.582 7.9 3.81 -5
8/13/2022 6:30:00 AM 22.37 72.266 7.9 3.83 -5
8/13/2022 6:45:00 AM 22.12 71.816 7.91 3.84 -5
8/13/2022 7:00:00 AM 22.12 71.816 7.9 4.01 -5
8/13/2022 7:15:00 AM 22.25 72.05 7.92 3.77 -5
8/13/2022 7:30:00 AM 21.88 71.384 7.9 3.78 -5
8/13/2022 7:45:00 AM 22.37 72.266 7.92 3.73 -5
8/13/2022 8:00:00 AM 21.73 71.114 7.91 3.67 -5
8/13/2022 8:15:00 AM 22.25 72.05 7.94 3.8 -5
8/13/2022 8:30:00 AM 21.99 71.582 7.95 3.62 -5
8/13/2022 8:45:00 AM 22.12 71.816 7.96 3.45 -5
8/13/2022 9:00:00 AM 22.12 71.816 7.96 3.41 -5
8/13/2022 9:15:00 AM 21.88 71.384 7.97 3.41 -5
8/13/2022 9:30:00 AM 22.25 72.05 7.98 3.31 -5
8/13/2022 9:45:00 AM 21.73 71.114 7.99 3.33 -5
8/13/2022 10:00:00 AM 22.37 72.266 8 3.37 -5
8/13/2022 10:15:00 AM 21.99 71.582 8 3.34 -5
8/13/2022 10:30:00 AM 22.37 72.266 8.02 3.31 -5
8/13/2022 10:45:00 AM 22.37 72.266 8.02 3.23 -5
8/13/2022 11:00:00 AM 22.25 72.05 8.02 3.27 -5
8/13/2022 11:15:00 AM 22.75 72.95 8.04 3.26 -5
8/13/2022 11:30:00 AM 22.12 71.816 8.03 3.1 -5
8/13/2022 11:45:00 AM 22.63 72.734 8.02 3.03 -5
8/13/2022 12:00:00 PM 22.5 72.5 8.02 3.21 -5
8/13/2022 12:15:00 PM 22.63 72.734 8 3.16 -5
8/13/2022 12:30:00 PM 22.87 73.166 8 3.16 -5
8/13/2022 12:45:00 PM 22.5 72.5 8.01 3.13 -5
8/13/2022 1:00:00 PM 23.13 73.634 7.99 3.17 -5
8/13/2022 1:15:00 PM 22.75 72.95 7.99 3.5 -5
8/13/2022 1:30:00 PM 22.98 73.364 7.99 3.11 -5
8/13/2022 1:45:00 PM 23.13 73.634 7.99 3.01 -5
8/13/2022 2:00:00 PM 22.87 73.166 8 3.02 -5
8/13/2022 2:15:00 PM 23.5 74.3 8.01 3 -5
8/13/2022 2:30:00 PM 23.13 73.634 8.01 3.04 -5
8/13/2022 2:45:00 PM 23.24 73.832 8.02 2.97 -5
8/13/2022 3:00:00 PM 23.62 74.516 8.04 2.97 -5
8/13/2022 3:15:00 PM 23.24 73.832 8.05 2.95 -5
8/13/2022 3:30:00 PM 23.51 74.318 8.06 2.85 -5
8/13/2022 3:45:00 PM 23.62 74.516 8.1 2.89 -5
8/13/2022 4:00:00 PM 23.38 74.084 8.15 2.89 -5
8/13/2022 4:15:00 PM 23.88 74.984 8.19 3.27 -5
8/13/2022 4:30:00 PM 23.76 74.768 8.22 3.09 -5
8/13/2022 4:45:00 PM 23.5 74.3 8.2 2.91 -5
8/13/2022 5:00:00 PM 24.13 75.434 8.2 2.82 -5
8/13/2022 5:15:00 PM 23.76 74.768 8.2 2.81 -5
8/13/2022 5:30:00 PM 23.5 74.3 8.19 2.83 -5
8/13/2022 5:45:00 PM 23.99 75.182 8.17 2.82 -5
8/13/2022 6:00:00 PM 23.62 74.516 8.16 2.76 -5
8/13/2022 6:15:00 PM 23.62 74.516 8.16 2.76 -5
8/13/2022 6:30:00 PM 23.99 75.182 8.14 2.81 -5
8/13/2022 6:45:00 PM 23.62 74.516 8.14 2.81 -5
8/13/2022 7:00:00 PM 23.62 74.516 8.11 2.8 -5
8/13/2022 7:15:00 PM 23.88 74.984 8.1 2.8 -5
8/13/2022 7:30:00 PM 23.5 74.3 8.06 2.89 -5
8/13/2022 7:45:00 PM 23.38 74.084 8.06 2.94 -5
8/13/2022 8:00:00 PM 23.88 74.984 8.04 2.9 -5
8/13/2022 8:15:00 PM 23.39 74.102 8.02 3.02 -5
8/13/2022 8:30:00 PM 23.24 73.832 8 2.98 -5
8/13/2022 8:45:00 PM 23.76 74.768 7.98 3.01 -5
8/13/2022 9:00:00 PM 23.5 74.3 7.98 3.06 -5
8/13/2022 9:15:00 PM 23.25 73.85 7.97 3.08 -5
8/13/2022 9:30:00 PM 23.13 73.634 7.96 3.07 -5
8/13/2022 9:45:00 PM 23.39 74.102 7.97 3.09 -5
8/13/2022 10:00:00 PM 23.5 74.3 7.96 3.18 -5
8/13/2022 10:15:00 PM 23.13 73.634 7.94 3.23 -5
8/13/2022 10:30:00 PM 23.13 73.634 7.93 3.17 -5
8/13/2022 10:45:00 PM 23.5 74.3 7.9 3.18 -5
8/13/2022 11:00:00 PM 23 73.4 7.9 3.2 -5
8/13/2022 11:15:00 PM 22.87 73.166 7.89 3.3 -5
8/13/2022 11:30:00 PM 23.39 74.102 7.89 3.41 -5
8/13/2022 11:45:00 PM 22.87 73.166 7.92 3.33 -5
8/14/2022 12:00:00 AM 22.87 73.166 7.93 3.29 -5
8/14/2022 12:15:00 AM 23.24 73.832 7.93 3.33 -5
8/14/2022 12:30:00 AM 22.75 72.95 7.93 3.34 -5
8/14/2022 12:45:00 AM 23 73.4 7.94 3.65 -5
8/14/2022 1:00:00 AM 23 73.4 7.95 3.38 -5
8/14/2022 1:15:00 AM 22.5 72.5 7.95 3.4 -5
8/14/2022 1:30:00 AM 23.13 73.634 7.94 3.44 -5
8/14/2022 1:45:00 AM 22.63 72.734 7.92 3.39 -5
8/14/2022 2:00:00 AM 22.75 72.95 7.91 3.58 -5
8/14/2022 2:15:00 AM 22.75 72.95 7.91 3.4 -5
8/14/2022 2:30:00 AM 22.37 72.266 7.91 3.43 -5
8/14/2022 2:45:00 AM 22.87 73.166 7.94 3.46 -5
8/14/2022 3:00:00 AM 22.5 72.5 7.91 3.45 -5
8/14/2022 3:15:00 AM 22.63 72.734 7.9 3.47 -5
8/14/2022 3:30:00 AM 22.63 72.734 7.89 3.51 -5
8/14/2022 3:45:00 AM 22.37 72.266 7.88 3.53 -5
8/14/2022 4:00:00 AM 22.75 72.95 7.9 3.58 -5
8/14/2022 4:15:00 AM 22.37 72.266 7.88 3.51 -5
8/14/2022 4:30:00 AM 22.75 72.95 7.89 3.55 -5
8/14/2022 4:45:00 AM 22.5 72.5 7.89 3.59 -5
8/14/2022 5:00:00 AM 22.25 72.05 7.87 3.6 -5
8/14/2022 5:15:00 AM 22.63 72.734 7.88 3.61 -5
8/14/2022 5:30:00 AM 22.25 72.05 7.87 3.62 -5
8/14/2022 5:45:00 AM 22.63 72.734 7.85 3.73 -5
8/14/2022 6:00:00 AM 22.37 72.266 7.87 3.75 -5
8/14/2022 6:15:00 AM 22.37 72.266 7.86 3.79 -5
8/14/2022 6:30:00 AM 22.5 72.5 7.88 3.71 -5
8/14/2022 6:45:00 AM 22.12 71.816 7.89 3.64 -5
8/14/2022 7:00:00 AM 22.63 72.734 7.89 3.66 -5
8/14/2022 7:15:00 AM 21.99 71.582 7.87 3.66 -5
8/14/2022 7:30:00 AM 22.62 72.716 7.88 3.57 -5
8/14/2022 7:45:00 AM 22.12 71.816 7.87 3.53 -5
8/14/2022 8:00:00 AM 22.37 72.266 7.86 3.5 -5
8/14/2022 8:15:00 AM 22.25 72.05 7.88 3.53 -5
8/14/2022 8:30:00 AM 22.37 72.266 7.89 3.49 -5
8/14/2022 8:45:00 AM 22.5 72.5 7.9 3.46 -5
8/14/2022 9:00:00 AM 22.12 71.816 7.9 3.48 -5
8/14/2022 9:15:00 AM 22.75 72.95 7.9 3.64 -5
8/14/2022 9:30:00 AM 22.37 72.266 7.92 3.32 -5
8/14/2022 9:45:00 AM 22.63 72.734 7.92 3.28 -5
8/14/2022 10:00:00 AM 22.63 72.734 7.93 3.21 -5
8/14/2022 10:15:00 AM 22.5 72.5 7.93 3.21 -5
8/14/2022 10:30:00 AM 23 73.4 7.93 3.18 -5
8/14/2022 10:45:00 AM 22.5 72.5 7.94 3.12 -5
8/14/2022 11:00:00 AM 23.13 73.634 7.93 3.16 -5
8/14/2022 11:15:00 AM 22.75 72.95 7.92 3.04 -5
8/14/2022 11:30:00 AM 23.24 73.832 7.91 3.05 -5
8/14/2022 11:45:00 AM 23 73.4 7.91 2.99 -5
8/14/2022 12:00:00 PM 23.25 73.85 7.89 2.99 -5
8/14/2022 12:15:00 PM 23.39 74.102 7.91 2.93 -5
8/14/2022 12:30:00 PM 23.13 73.634 7.91 2.95 -5
8/14/2022 12:45:00 PM 23.76 74.768 7.93 2.94 -5
8/14/2022 1:00:00 PM 23.13 73.634 7.93 2.93 -5
8/14/2022 1:15:00 PM 23.39 74.102 7.93 3.08 -5
8/14/2022 1:30:00 PM 23.62 74.516 7.96 3 -5
8/14/2022 1:45:00 PM 23.39 74.102 7.98 2.97 -5
8/14/2022 2:00:00 PM 23.76 74.768 7.97 2.93 -5
8/14/2022 2:15:00 PM 23.62 74.516 7.97 2.89 -5
8/14/2022 2:30:00 PM 23.39 74.102 7.96 2.86 -5
8/14/2022 2:45:00 PM 23.62 74.516 7.96 2.93 -5
8/14/2022 3:00:00 PM 23.76 74.768 7.95 2.87 -5
8/14/2022 3:15:00 PM 23.5 74.3 7.97 2.86 -5
8/14/2022 3:30:00 PM 23.39 74.102 7.98 2.85 -5
8/14/2022 3:45:00 PM 23.88 74.984 7.97 2.91 -5
8/14/2022 4:00:00 PM 23.5 74.3 7.96 3.19 -5
8/14/2022 4:15:00 PM 23.39 74.102 7.95 2.87 -5
8/14/2022 4:30:00 PM 23.24 73.832 7.94 2.86 -5
8/14/2022 4:45:00 PM 23.76 74.768 7.96 2.91 -5
8/14/2022 5:00:00 PM 23.25 73.85 7.95 2.81 -5
8/14/2022 5:15:00 PM 23.13 73.634 7.95 2.93 -5
8/14/2022 5:30:00 PM 23 73.4 7.94 2.9 -5
8/14/2022 5:45:00 PM 23.5 74.3 7.94 2.93 -5
8/14/2022 6:00:00 PM 23.13 73.634 7.93 2.79 -5
8/14/2022 6:15:00 PM 22.87 73.166 7.92 2.91 -5
8/14/2022 6:30:00 PM 22.87 73.166 7.91 3 -5
8/14/2022 6:45:00 PM 23.24 73.832 7.9 2.86 -5
8/14/2022 7:00:00 PM 23 73.4 7.89 2.8 -5
8/14/2022 7:15:00 PM 22.75 72.95 7.89 2.82 -5
8/14/2022 7:30:00 PM 22.63 72.734 7.88 2.85 -5
8/14/2022 7:45:00 PM 23 73.4 7.87 2.94 -5
8/14/2022 8:00:00 PM 22.87 73.166 7.85 2.78 -5
8/14/2022 8:15:00 PM 22.63 72.734 7.85 2.9 -5
8/14/2022 8:30:00 PM 22.5 72.5 7.83 2.89 -5
8/14/2022 8:45:00 PM 22.36 72.248 7.82 2.93 -5
8/14/2022 9:00:00 PM 23 73.4 7.81 2.93 -5
8/14/2022 9:15:00 PM 22.63 72.734 7.8 2.96 -5
8/14/2022 9:30:00 PM 22.5 72.5 7.79 3.01 -5
8/14/2022 9:45:00 PM 22.5 72.5 7.78 3.12 -5
8/14/2022 10:00:00 PM 23.05 73.49 7.77 3.14 -5
8/14/2022 10:15:00 PM 22.75 72.95 7.77 3.07 -5
8/14/2022 10:30:00 PM 22.5 72.5 7.76 3.09 -5
8/14/2022 10:45:00 PM 23 73.4 7.75 3.18 -5
8/14/2022 11:00:00 PM 22.75 72.95 7.75 3.18 -5
8/14/2022 11:15:00 PM 22.5 72.5 7.75 3.21 -5
8/14/2022 11:30:00 PM 22.87 73.166 7.75 3.3 -5
8/14/2022 11:45:00 PM 22.75 72.95 7.76 3.29 -5
8/15/2022 12:00:00 AM 22.5 72.5 7.75 3.31 -5
8/15/2022 12:15:00 AM 22.5 72.5 7.75 3.3 -5
8/15/2022 12:30:00 AM 22.87 73.166 7.75 3.41 -5
8/15/2022 12:45:00 AM 22.5 72.5 7.75 3.35 -5
8/15/2022 1:00:00 AM 22.37 72.266 7.75 3.42 -5
8/15/2022 1:15:00 AM 22.87 73.166 7.75 3.39 -5
8/15/2022 1:30:00 AM 22.5 72.5 7.76 3.37 -5
8/15/2022 1:45:00 AM 22.36 72.248 7.77 3.45 -5
8/15/2022 2:00:00 AM 22.75 72.95 7.77 3.42 -5
8/15/2022 2:15:00 AM 22.37 72.266 7.75 3.38 -5
8/15/2022 2:30:00 AM 22.37 72.266 7.73 3.47 -5
8/15/2022 2:45:00 AM 22.63 72.734 7.74 3.51 -5
8/15/2022 3:00:00 AM 22.12 71.816 7.72 3.46 -5
8/15/2022 3:15:00 AM 22.63 72.734 7.73 3.46 -5
8/15/2022 3:30:00 AM 22.37 72.266 7.73 3.59 -5
8/15/2022 3:45:00 AM 22.12 71.816 7.71 3.62 -5
8/15/2022 4:00:00 AM 22.63 72.734 7.73 3.72 -5
8/15/2022 4:15:00 AM 22.2 71.96 7.72 3.63 -5
8/15/2022 4:30:00 AM 22.5 72.5 7.72 3.76 -5
8/15/2022 4:45:00 AM 22.37 72.266 7.72 3.66 -5
8/15/2022 5:00:00 AM 21.99 71.582 7.72 3.63 -5
8/15/2022 5:15:00 AM 22.63 72.734 7.72 3.73 -5
8/15/2022 5:30:00 AM 22.25 72.05 7.72 3.7 -5
8/15/2022 5:45:00 AM 22.25 72.05 7.71 3.69 -5
8/15/2022 6:00:00 AM 22.49 72.482 7.72 3.83 -5
8/15/2022 6:15:00 AM 21.99 71.582 7.72 3.76 -5
8/15/2022 6:30:00 AM 22.63 72.734 7.72 3.78 -5
8/15/2022 6:45:00 AM 22.25 72.05 7.72 3.74 -5
8/15/2022 7:00:00 AM 22.25 72.05 7.71 3.74 -5
8/15/2022 7:15:00 AM 22.5 72.5 7.72 3.7 -5
8/15/2022 7:30:00 AM 22.12 71.816 7.78 3.73 -5
8/15/2022 7:45:00 AM 22.5 72.5 7.8 3.66 -5
8/15/2022 8:00:00 AM 22.37 72.266 7.81 3.52 -5
8/15/2022 8:15:00 AM 22.12 71.816 7.8 3.48 -5
8/15/2022 8:30:00 AM 22.5 72.5 7.79 3.49 -5
8/15/2022 8:45:00 AM 21.99 71.582 7.77 3.33 -5
8/15/2022 9:00:00 AM 22.5 72.5 7.77 3.32 -5
8/15/2022 9:15:00 AM 21.99 71.582 7.77 3.33 -5
8/15/2022 9:30:00 AM 22.37 72.266 7.78 3.26 -5
8/15/2022 9:45:00 AM 22.12 71.816 7.78 3.23 -5
8/15/2022 10:00:00 AM 22.25 72.05 7.8 3.09 -5
8/15/2022 10:15:00 AM 22.25 72.05 7.82 3.04 -5
8/15/2022 10:30:00 AM 22.12 71.816 7.83 2.99 -5
8/15/2022 10:45:00 AM 22.5 72.5 7.84 3.57 -5
8/15/2022 11:00:00 AM 22.12 71.816 7.86 3.24 -5
8/15/2022 11:15:00 AM 22.49 72.482 7.87 2.94 -5
8/15/2022 11:30:00 AM 22.25 72.05 7.88 3.04 -5
8/15/2022 11:45:00 AM 22.25 72.05 7.88 3.04 -5
8/15/2022 12:00:00 PM 22.63 72.734 7.89 2.88 -5
8/15/2022 12:15:00 PM 22.12 71.816 7.9 2.94 -5
8/15/2022 12:30:00 PM 22.63 72.734 7.91 2.95 -5
8/15/2022 12:45:00 PM 22.25 72.05 7.92 2.84 -5
8/15/2022 1:00:00 PM 22.37 72.266 7.92 2.87 -5
8/15/2022 1:15:00 PM 22.49 72.482 7.93 2.84 -5
8/15/2022 1:30:00 PM 22.25 72.05 7.94 2.9 -5
8/15/2022 1:45:00 PM 22.75 72.95 7.94 2.84 -5
8/15/2022 2:00:00 PM 22.25 72.05 7.94 2.84 -5
8/15/2022 2:15:00 PM 22.5 72.5 7.95 2.75 -5
8/15/2022 2:30:00 PM 22.37 72.266 7.95 2.74 -5
8/15/2022 2:45:00 PM 22.37 72.266 7.95 2.74 -5
8/15/2022 3:00:00 PM 22.49 72.482 7.96 2.71 -5
8/15/2022 3:15:00 PM 21.99 71.582 7.97 2.76 -5
8/15/2022 3:30:00 PM 22.63 72.734 7.97 2.79 -5
8/15/2022 3:45:00 PM 22.12 71.816 7.98 2.74 -5
8/15/2022 4:00:00 PM 22.37 72.266 7.99 2.75 -5
8/15/2022 4:15:00 PM 22.37 72.266 8 2.8 -5
8/15/2022 4:30:00 PM 21.99 71.582 8 2.75 -5
8/15/2022 4:45:00 PM 22.63 72.734 8.02 2.72 -5
8/15/2022 5:00:00 PM 22.25 72.05 8.02 2.74 -5
8/15/2022 5:15:00 PM 22.5 72.5 8.02 2.77 -5
8/15/2022 5:30:00 PM 22.37 72.266 8.02 2.72 -5
8/15/2022 5:45:00 PM 22.12 71.816 8.03 2.69 -5
8/15/2022 6:00:00 PM 22.5 72.5 8.03 2.68 -5
8/15/2022 6:15:00 PM 21.99 71.582 8.02 2.72 -5
8/15/2022 6:30:00 PM 22.5 72.5 8.02 2.73 -5
8/15/2022 6:45:00 PM 22.12 71.816 8 2.7 -5
8/15/2022 7:00:00 PM 21.99 71.582 7.96 2.69 -5
8/15/2022 7:15:00 PM 22.37 72.266 7.96 2.74 -5
8/15/2022 7:30:00 PM 21.88 71.384 7.92 2.8 -5
8/15/2022 7:45:00 PM 22.25 72.05 7.92 2.81 -5
8/15/2022 8:00:00 PM 22.12 71.816 7.92 2.75 -5
8/15/2022 8:15:00 PM 21.88 71.384 7.9 2.85 -5
8/15/2022 8:30:00 PM 22.25 72.05 7.89 2.89 -5
8/15/2022 8:45:00 PM 21.73 71.114 7.86 2.87 -5
8/15/2022 9:00:00 PM 21.99 71.582 7.85 2.87 -5
8/15/2022 9:15:00 PM 21.99 71.582 7.85 2.95 -5
8/15/2022 9:30:00 PM 21.62 70.916 7.84 2.98 -5
8/15/2022 9:45:00 PM 22.12 71.816 7.84 2.99 -5
8/15/2022 10:00:00 PM 21.7 71.06 7.83 2.97 -5
8/15/2022 10:15:00 PM 21.88 71.384 7.81 3.01 -5
8/15/2022 10:30:00 PM 21.88 71.384 7.82 3.01 -5
8/15/2022 10:45:00 PM 21.5 70.7 7.8 3.05 -5
8/15/2022 11:00:00 PM 21.99 71.582 7.8 3.11 -5
8/15/2022 11:15:00 PM 21.62 70.916 7.8 3.18 -5
8/15/2022 11:30:00 PM 21.5 70.7 7.78 3.16 -5
8/15/2022 11:45:00 PM 21.88 71.384 7.79 3.21 -5
8/16/2022 12:00:00 AM 21.36 70.448 7.77 3.18 -5
8/16/2022 12:15:00 AM 21.88 71.384 7.78 3.21 -5
8/16/2022 12:30:00 AM 21.5 70.7 7.78 3.24 -5
8/16/2022 12:45:00 AM 21.36 70.448 7.77 3.23 -5
8/16/2022 1:00:00 AM 21.73 71.114 7.77 3.31 -5
8/16/2022 1:15:00 AM 21.25 70.25 7.76 3.24 -5
8/16/2022 1:30:00 AM 21.62 70.916 7.76 3.23 -5
8/16/2022 1:45:00 AM 21.5 70.7 7.76 3.29 -5
8/16/2022 2:00:00 AM 21.25 70.25 7.75 3.35 -5
8/16/2022 2:15:00 AM 21.62 70.916 7.76 3.53 -5
8/16/2022 2:30:00 AM 21.12 70.016 7.75 3.27 -5
8/16/2022 2:45:00 AM 21.62 70.916 7.75 3.3 -5
8/16/2022 3:00:00 AM 21.25 70.25 7.75 3.29 -5
8/16/2022 3:15:00 AM 21.36 70.448 7.75 3.33 -5
8/16/2022 3:30:00 AM 21.36 70.448 7.75 3.41 -5
8/16/2022 3:45:00 AM 20.99 69.782 7.75 3.36 -5
8/16/2022 4:00:00 AM 21.5 70.7 7.76 3.36 -5
8/16/2022 4:15:00 AM 21.12 70.016 7.76 3.4 -5
8/16/2022 4:30:00 AM 21.36 70.448 7.75 3.43 -5
8/16/2022 4:45:00 AM 21.25 70.25 7.76 3.56 -5
8/16/2022 5:00:00 AM 21.12 70.016 7.76 3.41 -5
8/16/2022 5:15:00 AM 21.36 70.448 7.76 3.44 -5
8/16/2022 5:30:00 AM 20.87 69.566 7.75 3.47 -5
8/16/2022 5:45:00 AM 21.36 70.448 7.75 3.5 -5
8/16/2022 6:00:00 AM 20.99 69.782 7.75 3.78 -5
8/16/2022 6:15:00 AM 21.12 70.016 7.75 3.63 -5
8/16/2022 6:30:00 AM 21.25 70.25 7.76 3.58 -5
8/16/2022 6:45:00 AM 20.74 69.332 7.76 3.62 -5
8/16/2022 7:00:00 AM 21.36 70.448 7.78 4 -5
8/16/2022 7:15:00 AM 20.74 69.332 7.78 3.59 -5
8/16/2022 7:30:00 AM 21.25 70.25 7.78 3.5 -5
8/16/2022 7:45:00 AM 20.87 69.566 7.79 3.52 -5
8/16/2022 8:00:00 AM 20.99 69.782 7.8 3.51 -5
8/16/2022 8:15:00 AM 21.12 70.016 7.83 3.44 -5
8/16/2022 8:30:00 AM 20.99 69.782 7.83 3.42 -5
8/16/2022 8:45:00 AM 21.25 70.25 7.84 3.33 -5
8/16/2022 9:00:00 AM 20.99 69.782 7.85 3.35 -5
8/16/2022 9:15:00 AM 21.51 70.718 7.85 3.32 -5
8/16/2022 9:30:00 AM 20.98 69.764 7.87 3.18 -5
8/16/2022 9:45:00 AM 21.5 70.7 7.89 3.11 -5
8/16/2022 10:00:00 AM 21.12 70.016 7.9 3.04 -5
8/16/2022 10:15:00 AM 21.51 70.718 7.92 3.06 -5
8/16/2022 10:30:00 AM 21.36 70.448 7.94 3.05 -5
8/16/2022 10:45:00 AM 21.5 70.7 7.94 3.09 -5
8/16/2022 11:00:00 AM 21.88 71.384 7.95 3.04 -5
8/16/2022 11:15:00 AM 21.5 70.7 7.95 3.01 -5
8/16/2022 11:30:00 AM 22.12 71.816 7.96 2.98 -5
8/16/2022 11:45:00 AM 21.74 71.132 7.96 2.98 -5
8/16/2022 12:00:00 PM 22.12 71.816 7.96 3 -5
8/16/2022 12:15:00 PM 21.99 71.582 7.95 2.95 -5
8/16/2022 12:30:00 PM 21.88 71.384 7.96 2.93 -5
8/16/2022 12:45:00 PM 22.37 72.266 7.96 2.9 -5
8/16/2022 1:00:00 PM 21.99 71.582 7.99 2.9 -5
8/16/2022 1:15:00 PM 22.5 72.5 8.03 2.94 -5
8/16/2022 1:30:00 PM 22.37 72.266 8.09 2.83 -5
8/16/2022 1:45:00 PM 22.25 72.05 8.08 2.87 -5
8/16/2022 2:00:00 PM 22.75 72.95 8.11 2.84 -5
8/16/2022 2:15:00 PM 22.5 72.5 8.12 2.95 -5
8/16/2022 2:30:00 PM 22.87 73.166 8.18 2.79 -5
8/16/2022 2:45:00 PM 22.87 73.166 8.21 2.79 -5
8/16/2022 3:00:00 PM 22.63 72.734 8.22 2.84 -5
8/16/2022 3:15:00 PM 23.13 73.634 8.25 2.75 -5
8/16/2022 3:30:00 PM 23 73.4 8.26 2.77 -5
8/16/2022 3:45:00 PM 22.75 72.95 8.27 2.71 -5
8/16/2022 4:00:00 PM 23.38 74.084 8.26 2.76 -5
8/16/2022 4:15:00 PM 23 73.4 8.28 2.74 -5
8/16/2022 4:30:00 PM 22.87 73.166 8.27 2.78 -5
8/16/2022 4:45:00 PM 23.39 74.102 8.26 2.7 -5
8/16/2022 5:00:00 PM 23.13 73.634 8.26 2.69 -5
8/16/2022 5:15:00 PM 23.13 73.634 8.27 2.69 -5
8/16/2022 5:30:00 PM 23.5 74.3 8.24 2.74 -5
8/16/2022 5:45:00 PM 23.13 73.634 8.22 2.92 -5
8/16/2022 6:00:00 PM 23 73.4 8.19 2.76 -5
8/16/2022 6:15:00 PM 23.39 74.102 8.17 2.8 -5
8/16/2022 6:30:00 PM 23.25 73.85 8.16 2.91 -5
8/16/2022 6:45:00 PM 23 73.4 8.15 2.84 -5
8/16/2022 7:00:00 PM 22.87 73.166 8.14 2.86 -5
8/16/2022 7:15:00 PM 23.13 73.634 8.12 2.89 -5
8/16/2022 7:30:00 PM 23.13 73.634 8.11 2.88 -5
8/16/2022 7:45:00 PM 22.87 73.166 8.09 2.86 -5
8/16/2022 8:00:00 PM 22.75 72.95 8.07 2.84 -5
8/16/2022 8:15:00 PM 22.63 72.734 8.06 2.87 -5
8/16/2022 8:30:00 PM 23.13 73.634 8.04 2.9 -5
8/16/2022 8:45:00 PM 22.75 72.95 8.03 2.97 -5
8/16/2022 9:00:00 PM 22.5 72.5 8.02 2.93 -5
8/16/2022 9:15:00 PM 22.5 72.5 8.01 3.01 -5
8/16/2022 9:30:00 PM 22.87 73.166 8.01 3.02 -5
8/16/2022 9:45:00 PM 22.5 72.5 8 3.13 -5
8/16/2022 10:00:00 PM 22.36 72.248 7.98 2.98 -5
8/16/2022 10:15:00 PM 22.75 72.95 7.97 2.99 -5
8/16/2022 10:30:00 PM 22.63 72.734 7.95 3.23 -5
8/16/2022 10:45:00 PM 22.37 72.266 7.94 3.1 -5
8/16/2022 11:00:00 PM 22.5 72.5 7.93 3.09 -5
8/16/2022 11:15:00 PM 22.63 72.734 7.92 3.14 -5
8/16/2022 11:30:00 PM 22.26 72.068 7.92 3.24 -5
8/16/2022 11:45:00 PM 22.5 72.5 7.92 3.54 -5
8/17/2022 12:00:00 AM 22.5 72.5 7.92 3.22 -5
8/17/2022 12:15:00 AM 22.12 71.816 7.93 3.18 -5
8/17/2022 12:30:00 AM 22.5 72.5 7.93 3.23 -5
8/17/2022 12:45:00 AM 22.37 72.266 7.94 3.32 -5
8/17/2022 1:00:00 AM 21.99 71.582 7.94 3.5 -5
8/17/2022 1:15:00 AM 22.5 72.5 7.95 3.24 -5
8/17/2022 1:30:00 AM 22.12 71.816 7.94 3.27 -5
8/17/2022 1:45:00 AM 21.73 71.114 7.89 3.27 -5
8/17/2022 2:00:00 AM 22.25 72.05 7.9 3.32 -5
8/17/2022 2:15:00 AM 21.73 71.114 7.88 3.33 -5
8/17/2022 2:30:00 AM 21.88 71.384 7.88 3.35 -5
8/17/2022 2:45:00 AM 21.99 71.582 7.87 3.34 -5
8/17/2022 3:00:00 AM 21.62 70.916 7.87 3.51 -5
8/17/2022 3:15:00 AM 22.1 71.78 7.87 3.38 -5
8/17/2022 3:30:00 AM 21.62 70.916 7.86 3.36 -5
8/17/2022 3:45:00 AM 21.62 70.916 7.87 3.42 -5
8/17/2022 4:00:00 AM 21.73 71.114 7.88 3.42 -5
8/17/2022 4:15:00 AM 21.36 70.448 7.87 3.43 -5
8/17/2022 4:30:00 AM 21.88 71.384 7.87 3.41 -5
8/17/2022 4:45:00 AM 21.51 70.718 7.86 3.41 -5
8/17/2022 5:00:00 AM 21.51 70.718 7.86 3.48 -5
8/17/2022 5:15:00 AM 21.62 70.916 7.88 3.48 -5
8/17/2022 5:30:00 AM 21.25 70.25 7.87 3.52 -5
8/17/2022 5:45:00 AM 21.73 71.114 7.89 3.55 -5
8/17/2022 6:00:00 AM 21.36 70.448 7.88 3.61 -5
8/17/2022 6:15:00 AM 21.51 70.718 7.85 3.67 -5
8/17/2022 6:30:00 AM 21.51 70.718 7.85 3.69 -5
8/17/2022 6:45:00 AM 21.12 70.016 7.82 3.6 -5
8/17/2022 7:00:00 AM 21.62 70.916 7.84 3.58 -5
8/17/2022 7:15:00 AM 21.12 70.016 7.87 3.55 -5
8/17/2022 7:30:00 AM 21.51 70.718 7.88 3.57 -5
8/17/2022 7:45:00 AM 21.36 70.448 7.89 3.56 -5
8/17/2022 8:00:00 AM 21.25 70.25 7.89 3.57 -5
8/17/2022 8:15:00 AM 21.51 70.718 7.91 3.36 -5
8/17/2022 8:30:00 AM 21.12 70.016 7.91 3.31 -5
8/17/2022 8:45:00 AM 21.62 70.916 7.92 3.36 -5
8/17/2022 9:00:00 AM 20.99 69.782 7.93 3.4 -5
8/17/2022 9:15:00 AM 21.62 70.916 7.94 3.35 -5
8/17/2022 9:30:00 AM 21.25 70.25 7.95 3.23 -5
8/17/2022 9:45:00 AM 21.5 70.7 7.95 3.16 -5
8/17/2022 10:00:00 AM 21.62 70.916 7.96 3.12 -5
8/17/2022 10:15:00 AM 21.37 70.466 7.97 3.12 -5
8/17/2022 10:30:00 AM 21.88 71.384 7.98 3.08 -5
8/17/2022 10:45:00 AM 21.51 70.718 7.98 3.02 -5
8/17/2022 11:00:00 AM 21.99 71.582 7.98 3.1 -5
8/17/2022 11:15:00 AM 21.88 71.384 7.97 3.04 -5
8/17/2022 11:30:00 AM 21.73 71.114 8 3.03 -5
8/17/2022 11:45:00 AM 22.26 72.068 8 3.06 -5
8/17/2022 12:00:00 PM 21.88 71.384 8.01 3 -5
8/17/2022 12:15:00 PM 22.37 72.266 8 2.99 -5
8/17/2022 12:30:00 PM 22.37 72.266 8 2.96 -5
8/17/2022 12:45:00 PM 22.12 71.816 8.01 2.86 -5
8/17/2022 1:00:00 PM 22.75 72.95 8.01 2.84 -5
8/17/2022 1:15:00 PM 22.25 72.05 8.01 2.91 -5
8/17/2022 1:30:00 PM 22.5 72.5 8.02 2.85 -5
8/17/2022 1:45:00 PM 22.75 72.95 8.05 2.85 -5
8/17/2022 2:00:00 PM 22.5 72.5 8.08 2.86 -5
8/17/2022 2:15:00 PM 22.87 73.166 8.08 2.88 -5
8/17/2022 2:30:00 PM 22.76 72.968 8.08 2.99 -5
8/17/2022 2:45:00 PM 22.63 72.734 8.06 2.85 -5
8/17/2022 3:00:00 PM 22.87 73.166 8.06 2.91 -5
8/17/2022 3:15:00 PM 22.37 72.266 8.04 2.86 -5
8/17/2022 3:30:00 PM 22.75 72.95 8.02 2.8 -5
8/17/2022 3:45:00 PM 22.37 72.266 8.01 2.79 -5
8/17/2022 4:00:00 PM 22.5 72.5 8.02 2.82 -5
8/17/2022 4:15:00 PM 22.63 72.734 8.04 2.88 -5
8/17/2022 4:30:00 PM 22.37 72.266 8.03 2.76 -5
8/17/2022 4:45:00 PM 22.75 72.95 8.04 2.76 -5
8/17/2022 5:00:00 PM 22.37 72.266 8.04 2.81 -5
8/17/2022 5:15:00 PM 22.75 72.95 8.03 2.87 -5
8/17/2022 5:30:00 PM 22.37 72.266 8.02 2.85 -5
8/17/2022 5:45:00 PM 22.37 72.266 8.01 2.74 -5
8/17/2022 6:00:00 PM 22.5 72.5 8 2.72 -5
8/17/2022 6:15:00 PM 21.99 71.582 8.02 2.7 -5
8/17/2022 6:30:00 PM 22.63 72.734 8.01 2.75 -5
8/17/2022 6:45:00 PM 22.26 72.068 8.01 2.97 -5
8/17/2022 7:00:00 PM 22.5 72.5 8.01 2.85 -5
8/17/2022 7:15:00 PM 22.5 72.5 7.99 2.81 -5
8/17/2022 7:30:00 PM 22.25 72.05 8 2.79 -5
8/17/2022 7:45:00 PM 22.75 72.95 8 2.84 -5
8/17/2022 8:00:00 PM 22.5 72.5 8 2.77 -5
8/17/2022 8:15:00 PM 22.25 72.05 7.98 2.94 -5
8/17/2022 8:30:00 PM 22.75 72.95 7.96 2.82 -5
8/17/2022 8:45:00 PM 22.25 72.05 7.95 2.94 -5
8/17/2022 9:00:00 PM 22.12 71.816 7.92 2.97 -5
8/17/2022 9:15:00 PM 22.25 72.05 7.91 2.93 -5
8/17/2022 9:30:00 PM 21.88 71.384 7.89 3.02 -5
8/17/2022 9:45:00 PM 22.25 72.05 7.88 3.04 -5
8/17/2022 10:00:00 PM 21.88 71.384 7.88 3.08 -5
8/17/2022 10:15:00 PM 21.73 71.114 7.88 3.07 -5
8/17/2022 10:30:00 PM 21.88 71.384 7.88 3.07 -5
8/17/2022 10:45:00 PM 21.36 70.448 7.88 3.14 -5
8/17/2022 11:00:00 PM 21.74 71.132 7.89 3.15 -5
8/17/2022 11:15:00 PM 21.36 70.448 7.9 3.17 -5
8/17/2022 11:30:00 PM 21.5 70.7 7.91 3.14 -5
8/17/2022 11:45:00 PM 21.73 71.114 7.92 3.17 -5
8/18/2022 12:00:00 AM 21.25 70.25 7.94 3.23 -5
8/18/2022 12:15:00 AM 21.73 71.114 7.91 3.29 -5
8/18/2022 12:30:00 AM 21.36 70.448 7.88 3.31 -5
8/18/2022 12:45:00 AM 21.51 70.718 7.9 3.33 -5
8/18/2022 1:00:00 AM 21.51 70.718 7.89 3.27 -5
8/18/2022 1:15:00 AM 21.12 70.016 7.88 3.32 -5
8/18/2022 1:30:00 AM 21.51 70.718 7.89 3.33 -5
8/18/2022 1:45:00 AM 21.12 70.016 7.88 3.32 -5
8/18/2022 2:00:00 AM 21.36 70.448 7.87 3.36 -5
8/18/2022 2:15:00 AM 21.12 70.016 7.86 3.36 -5
8/18/2022 2:30:00 AM 20.99 69.782 7.86 3.36 -5
8/18/2022 2:45:00 AM 21.25 70.25 7.86 3.33 -5
8/18/2022 3:00:00 AM 20.74 69.332 7.83 3.4 -5
8/18/2022 3:15:00 AM 21.25 70.25 7.84 3.27 -5
8/18/2022 3:30:00 AM 20.87 69.566 7.84 3.38 -5
8/18/2022 3:45:00 AM 20.99 69.782 7.82 3.38 -5
8/18/2022 4:00:00 AM 20.99 69.782 7.83 3.51 -5
8/18/2022 4:15:00 AM 20.87 69.566 7.82 3.56 -5
8/18/2022 4:30:00 AM 21.12 70.016 7.85 3.4 -5
8/18/2022 4:45:00 AM 20.61 69.098 7.83 3.4 -5
8/18/2022 5:00:00 AM 21.25 70.25 7.83 3.51 -5
8/18/2022 5:15:00 AM 20.75 69.35 7.81 3.48 -5
8/18/2022 5:30:00 AM 20.99 69.782 7.81 3.47 -5
8/18/2022 5:45:00 AM 20.74 69.332 7.81 3.53 -5
8/18/2022 6:00:00 AM 20.87 69.566 7.82 3.57 -5
8/18/2022 6:15:00 AM 20.87 69.566 7.81 3.69 -5
8/18/2022 6:30:00 AM 20.61 69.098 7.81 3.61 -5
8/18/2022 6:45:00 AM 21.12 70.016 7.81 3.6 -5
8/18/2022 7:00:00 AM 20.61 69.098 7.81 3.63 -5
8/18/2022 7:15:00 AM 20.91 69.638 7.83 3.62 -5
8/18/2022 7:30:00 AM 20.74 69.332 7.84 3.68 -5
8/18/2022 7:45:00 AM 20.74 69.332 7.84 3.56 -5
8/18/2022 8:00:00 AM 20.87 69.566 7.86 3.51 -5
8/18/2022 8:15:00 AM 20.61 69.098 7.87 3.5 -5
8/18/2022 8:30:00 AM 20.99 69.782 7.89 3.46 -5
8/18/2022 8:45:00 AM 20.61 69.098 7.89 3.42 -5
8/18/2022 9:00:00 AM 21.12 70.016 7.9 3.36 -5
8/18/2022 9:15:00 AM 20.74 69.332 7.91 3.23 -5
8/18/2022 9:30:00 AM 20.99 69.782 7.91 3.23 -5
8/18/2022 9:45:00 AM 21.12 70.016 7.93 3.2 -5
8/18/2022 10:00:00 AM 20.74 69.332 7.95 3.29 -5
8/18/2022 10:15:00 AM 21.36 70.448 7.95 3.16 -5
8/18/2022 10:30:00 AM 20.99 69.782 7.96 3.21 -5
8/18/2022 10:45:00 AM 21.36 70.448 7.97 3.28 -5
8/18/2022 11:00:00 AM 21.36 70.448 7.98 3.14 -5
8/18/2022 11:15:00 AM 21.5 70.7 7.98 3.22 -5
8/18/2022 11:30:00 AM 21.74 71.132 8 3.18 -5
8/18/2022 11:45:00 AM 21.5 70.7 8.01 3.04 -5
8/18/2022 12:00:00 PM 22.12 71.816 8.02 2.99 -5
8/18/2022 12:15:00 PM 21.88 71.384 8.03 2.97 -5
8/18/2022 12:30:00 PM 22.37 72.266 8.05 2.91 -5
8/18/2022 12:45:00 PM 22.25 72.05 8.08 2.89 -5
8/18/2022 1:00:00 PM 22.25 72.05 8.12 2.9 -5
8/18/2022 1:15:00 PM 22.63 72.734 8.17 2.88 -5
8/18/2022 1:30:00 PM 22.37 72.266 8.2 3.04 -5
8/18/2022 1:45:00 PM 23 73.4 8.24 2.9 -5
8/18/2022 2:00:00 PM 22.63 72.734 8.26 2.94 -5
8/18/2022 2:15:00 PM 22.87 73.166 8.28 2.89 -5
8/18/2022 2:30:00 PM 23.13 73.634 8.29 3 -5
8/18/2022 2:45:00 PM 22.87 73.166 8.31 2.92 -5
8/18/2022 3:00:00 PM 23.5 74.3 8.32 2.9 -5
8/18/2022 3:15:00 PM 23.13 73.634 8.34 2.93 -5
8/18/2022 3:30:00 PM 23 73.4 8.33 2.94 -5
8/18/2022 3:45:00 PM 23.62 74.516 8.31 2.88 -5
8/18/2022 4:00:00 PM 23.25 73.85 8.31 2.91 -5
8/18/2022 4:15:00 PM 23.13 73.634 8.31 2.9 -5
8/18/2022 4:30:00 PM 23.62 74.516 8.33 2.87 -5
8/18/2022 4:45:00 PM 23.62 74.516 8.32 2.88 -5
8/18/2022 5:00:00 PM 23.39 74.102 8.31 2.84 -5
8/18/2022 5:15:00 PM 23.25 73.85 8.3 2.81 -5
8/18/2022 5:30:00 PM 23.88 74.984 8.29 2.85 -5
8/18/2022 5:45:00 PM 23.5 74.3 8.28 2.81 -5
8/18/2022 6:00:00 PM 23.39 74.102 8.27 2.81 -5
8/18/2022 6:15:00 PM 23.25 73.85 8.23 2.83 -5
8/18/2022 6:30:00 PM 23.76 74.768 8.2 2.93 -5
8/18/2022 6:45:00 PM 23.39 74.102 8.18 2.82 -5
8/18/2022 7:00:00 PM 23.13 73.634 8.18 2.86 -5
8/18/2022 7:15:00 PM 23.13 73.634 8.17 2.8 -5
8/18/2022 7:30:00 PM 23.62 74.516 8.15 2.87 -5
8/18/2022 7:45:00 PM 23.25 73.85 8.13 2.85 -5
8/18/2022 8:00:00 PM 23 73.4 8.11 2.93 -5
8/18/2022 8:15:00 PM 22.87 73.166 8.09 2.92 -5
8/18/2022 8:30:00 PM 23.51 74.318 8.06 2.94 -5
8/18/2022 8:45:00 PM 23 73.4 8.04 2.97 -5
8/18/2022 9:00:00 PM 22.87 73.166 8.02 2.99 -5
8/18/2022 9:15:00 PM 23 73.4 8.01 3.13 -5
8/18/2022 9:30:00 PM 23.13 73.634 7.99 3.05 -5
8/18/2022 9:45:00 PM 22.87 73.166 7.98 3.09 -5
8/18/2022 10:00:00 PM 22.75 72.95 7.98 3.11 -5
8/18/2022 10:15:00 PM 23 73.4 7.96 3.1 -5
8/18/2022 10:30:00 PM 23 73.4 7.96 3.08 -5
8/18/2022 10:45:00 PM 22.63 72.734 7.94 3.12 -5
8/18/2022 11:00:00 PM 22.75 72.95 7.93 3.18 -5
8/18/2022 11:15:00 PM 23 73.4 7.92 3.14 -5
8/18/2022 11:30:00 PM 22.63 72.734 7.91 3.16 -5
8/18/2022 11:45:00 PM 22.5 72.5 7.91 3.15 -5
8/19/2022 12:00:00 AM 22.87 73.166 7.91 3.22 -5
8/19/2022 12:15:00 AM 22.5 72.5 7.91 3.19 -5
8/19/2022 12:30:00 AM 22.5 72.5 7.92 3.2 -5
8/19/2022 12:45:00 AM 22.75 72.95 7.93 3.26 -5
8/19/2022 1:00:00 AM 22.37 72.266 7.92 3.27 -5
8/19/2022 1:15:00 AM 22.37 72.266 7.87 3.32 -5
8/19/2022 1:30:00 AM 22.5 72.5 7.87 3.33 -5
8/19/2022 1:45:00 AM 22.12 71.816 7.87 3.27 -5
8/19/2022 2:00:00 AM 22.5 72.5 7.88 3.3 -5
8/19/2022 2:15:00 AM 22.25 72.05 7.85 3.28 -5
8/19/2022 2:30:00 AM 21.88 71.384 7.84 3.45 -5
8/19/2022 2:45:00 AM 22.37 72.266 7.86 3.44 -5
8/19/2022 3:00:00 AM 21.88 71.384 7.83 3.36 -5
8/19/2022 3:15:00 AM 21.99 71.582 7.83 3.36 -5
8/19/2022 3:30:00 AM 22.12 71.816 7.82 3.41 -5
8/19/2022 3:45:00 AM 21.74 71.132 7.8 3.6 -5
8/19/2022 4:00:00 AM 22.25 72.05 7.81 3.39 -5
8/19/2022 4:15:00 AM 21.74 71.132 7.79 3.41 -5
8/19/2022 4:30:00 AM 21.88 71.384 7.79 3.41 -5
8/19/2022 4:45:00 AM 21.88 71.384 7.79 3.4 -5
8/19/2022 5:00:00 AM 21.51 70.718 7.79 3.69 -5
8/19/2022 5:15:00 AM 21.99 71.582 7.8 3.48 -5
8/19/2022 5:30:00 AM 21.5 70.7 7.78 3.47 -5
8/19/2022 5:45:00 AM 21.74 71.132 7.79 3.49 -5
8/19/2022 6:00:00 AM 21.74 71.132 7.79 3.53 -5
8/19/2022 6:15:00 AM 21.36 70.448 7.78 3.83 -5
8/19/2022 6:30:00 AM 21.88 71.384 7.8 3.6 -5
8/19/2022 6:45:00 AM 21.36 70.448 7.78 3.57 -5
8/19/2022 7:00:00 AM 21.74 71.132 7.78 3.57 -5
8/19/2022 7:15:00 AM 21.62 70.916 7.79 3.59 -5
8/19/2022 7:30:00 AM 21.51 70.718 7.78 3.59 -5
8/19/2022 7:45:00 AM 21.74 71.132 7.8 3.58 -5
8/19/2022 8:00:00 AM 21.36 70.448 7.81 4.2 -5
8/19/2022 8:15:00 AM 21.88 71.384 7.83 3.62 -5
8/19/2022 8:30:00 AM 21.36 70.448 7.84 3.38 -5
8/19/2022 8:45:00 AM 21.88 71.384 7.85 3.4 -5
8/19/2022 9:00:00 AM 21.5 70.7 7.86 3.43 -5
8/19/2022 9:15:00 AM 21.88 71.384 7.87 3.35 -5
8/19/2022 9:30:00 AM 21.73 71.114 7.87 3.23 -5
8/19/2022 9:45:00 AM 21.88 71.384 7.87 3.22 -5
8/19/2022 10:00:00 AM 22.12 71.816 7.87 3.17 -5
8/19/2022 10:15:00 AM 21.73 71.114 7.88 3.17 -5
8/19/2022 10:30:00 AM 22.37 72.266 7.89 3.12 -5
8/19/2022 10:45:00 AM 22.12 71.816 7.89 3.07 -5
8/19/2022 11:00:00 AM 22.37 72.266 7.89 3.12 -5
8/19/2022 11:15:00 AM 22.5 72.5 7.9 3.06 -5
8/19/2022 11:30:00 AM 22.37 72.266 7.91 3.01 -5
8/19/2022 11:45:00 AM 22.87 73.166 7.93 3.11 -5
8/19/2022 12:00:00 PM 22.63 72.734 7.95 2.99 -5
8/19/2022 12:15:00 PM 23 73.4 7.99 2.95 -5
8/19/2022 12:30:00 PM 23 73.4 8.03 2.97 -5
8/19/2022 12:45:00 PM 23 73.4 8.06 2.97 -5
8/19/2022 1:00:00 PM 23.5 74.3 8.13 2.97 -5
8/19/2022 1:15:00 PM 23.39 74.102 8.17 3.09 -5
8/19/2022 1:30:00 PM 23.62 74.516 8.2 2.98 -5
8/19/2022 1:45:00 PM 23.62 74.516 8.19 2.96 -5
8/19/2022 2:00:00 PM 23.5 74.3 8.19 2.96 -5
8/19/2022 2:15:00 PM 23.88 74.984 8.19 2.98 -5
8/19/2022 2:30:00 PM 23.88 74.984 8.2 2.9 -5
8/19/2022 2:45:00 PM 23.76 74.768 8.2 3.07 -5
8/19/2022 3:00:00 PM 23.88 74.984 8.21 2.97 -5
8/19/2022 3:15:00 PM 24.25 75.65 8.21 2.88 -5
8/19/2022 3:30:00 PM 23.99 75.182 8.2 2.87 -5
8/19/2022 3:45:00 PM 23.99 75.182 8.2 2.85 -5
8/19/2022 4:00:00 PM 23.99 75.182 8.17 2.88 -5
8/19/2022 4:15:00 PM 24.25 75.65 8.21 2.91 -5
8/19/2022 4:30:00 PM 24.13 75.434 8.19 2.89 -5
8/19/2022 4:45:00 PM 23.99 75.182 8.17 2.88 -5
8/19/2022 5:00:00 PM 23.99 75.182 8.16 2.85 -5
8/19/2022 5:15:00 PM 23.99 75.182 8.15 2.82 -5
8/19/2022 5:30:00 PM 24.37 75.866 8.16 2.86 -5
8/19/2022 5:45:00 PM 24.14 75.452 8.15 2.86 -5
8/19/2022 6:00:00 PM 23.99 75.182 8.13 2.82 -5
8/19/2022 6:15:00 PM 23.88 74.984 8.13 2.82 -5
8/19/2022 6:30:00 PM 23.88 74.984 8.11 2.82 -5
8/19/2022 6:45:00 PM 23.77 74.786 8.09 2.93 -5
8/19/2022 7:00:00 PM 24.25 75.65 8.09 2.85 -5
8/19/2022 7:15:00 PM 23.88 74.984 8.09 2.81 -5
8/19/2022 7:30:00 PM 23.76 74.768 8.08 2.82 -5
8/19/2022 7:45:00 PM 23.76 74.768 8.06 2.86 -5
8/19/2022 8:00:00 PM 23.62 74.516 8.04 2.96 -5
8/19/2022 8:15:00 PM 23.62 74.516 8.01 2.93 -5
8/19/2022 8:30:00 PM 23.62 74.516 7.99 2.93 -5
8/19/2022 8:45:00 PM 23.99 75.182 7.96 2.97 -5
8/19/2022 9:00:00 PM 23.62 74.516 7.96 2.99 -5
8/19/2022 9:15:00 PM 23.5 74.3 7.95 3 -5
8/19/2022 9:30:00 PM 23.39 74.102 7.94 3.18 -5
8/19/2022 9:45:00 PM 23.24 73.832 7.94 3.05 -5
8/19/2022 10:00:00 PM 23.39 74.102 7.93 3.05 -5
8/19/2022 10:15:00 PM 23.5 74.3 7.92 3.04 -5
8/19/2022 10:30:00 PM 23.25 73.85 7.91 3.19 -5
8/19/2022 10:45:00 PM 23.25 73.85 7.9 3.31 -5
8/19/2022 11:00:00 PM 23.13 73.634 7.89 3.16 -5
8/19/2022 11:15:00 PM 23.62 74.516 7.88 3.17 -5
8/19/2022 11:30:00 PM 23.39 74.102 7.87 3.19 -5
8/19/2022 11:45:00 PM 23.24 73.832 7.87 3.27 -5
8/20/2022 12:00:00 AM 23.24 73.832 7.86 3.55 -5
8/20/2022 12:15:00 AM 23.13 73.634 7.86 3.27 -5
8/20/2022 12:30:00 AM 23.25 73.85 7.86 3.25 -5
8/20/2022 12:45:00 AM 23.5 74.3 7.86 3.29 -5
8/20/2022 1:00:00 AM 23.25 73.85 7.86 3.32 -5
8/20/2022 1:15:00 AM 23.13 73.634 7.86 3.33 -5
8/20/2022 1:30:00 AM 23 73.4 7.87 3.33 -5
8/20/2022 1:45:00 AM 23.5 74.3 7.88 3.33 -5
8/20/2022 2:00:00 AM 23.25 73.85 7.88 3.28 -5
8/20/2022 2:15:00 AM 23 73.4 7.89 3.34 -5
8/20/2022 2:30:00 AM 22.87 73.166 7.89 3.39 -5
8/20/2022 2:45:00 AM 23.13 73.634 7.89 3.4 -5
8/20/2022 3:00:00 AM 23.25 73.85 7.89 3.36 -5
8/20/2022 3:15:00 AM 23 73.4 7.89 3.45 -5
8/20/2022 3:30:00 AM 22.87 73.166 7.88 3.39 -5
8/20/2022 3:45:00 AM 23.39 74.102 7.88 3.4 -5
8/20/2022 4:00:00 AM 23 73.4 7.87 3.48 -5
8/20/2022 4:15:00 AM 22.75 72.95 7.85 3.42 -5
8/20/2022 4:30:00 AM 22.75 72.95 7.83 3.42 -5
8/20/2022 4:45:00 AM 23.25 73.85 7.85 3.51 -5
8/20/2022 5:00:00 AM 22.87 73.166 7.82 3.57 -5
8/20/2022 5:15:00 AM 22.75 72.95 7.81 3.51 -5
8/20/2022 5:30:00 AM 23 73.4 7.82 3.49 -5
8/20/2022 5:45:00 AM 22.87 73.166 7.81 3.54 -5
8/20/2022 6:00:00 AM 22.63 72.734 7.79 3.61 -5
8/20/2022 6:15:00 AM 22.87 73.166 7.79 3.64 -5
8/20/2022 6:30:00 AM 22.87 73.166 7.79 3.75 -5
8/20/2022 6:45:00 AM 22.63 72.734 7.78 3.65 -5
8/20/2022 7:00:00 AM 22.5 72.5 7.78 3.65 -5
8/20/2022 7:15:00 AM 23 73.4 7.8 3.65 -5
8/20/2022 7:30:00 AM 22.75 72.95 7.8 3.61 -5
8/20/2022 7:45:00 AM 22.63 72.734 7.8 3.61 -5
8/20/2022 8:00:00 AM 23 73.4 7.82 3.62 -5
8/20/2022 8:15:00 AM 22.87 73.166 7.83 3.6 -5
8/20/2022 8:30:00 AM 22.75 72.95 7.83 3.52 -5
8/20/2022 8:45:00 AM 23 73.4 7.84 3.51 -5
8/20/2022 9:00:00 AM 23 73.4 7.84 3.47 -5
8/20/2022 9:15:00 AM 22.87 73.166 7.84 3.39 -5
8/20/2022 9:30:00 AM 22.87 73.166 7.85 3.38 -5
8/20/2022 9:45:00 AM 23.24 73.832 7.85 3.32 -5
8/20/2022 10:00:00 AM 23.25 73.85 7.85 3.3 -5
8/20/2022 10:15:00 AM 23.25 73.85 7.86 3.26 -5
8/20/2022 10:30:00 AM 23.25 73.85 7.87 3.15 -5
8/20/2022 10:45:00 AM 23.77 74.786 7.88 3.1 -5
8/20/2022 11:00:00 AM 23.51 74.318 7.89 3.14 -5
8/20/2022 11:15:00 AM 23.62 74.516 7.89 3.05 -5
8/20/2022 11:30:00 AM 23.76 74.768 7.9 3.05 -5
8/20/2022 11:45:00 AM 24.25 75.65 7.92 3.05 -5
8/20/2022 12:00:00 PM 23.99 75.182 7.92 3.05 -5
8/20/2022 12:15:00 PM 23.88 74.984 7.91 2.96 -5
8/20/2022 12:30:00 PM 23.88 74.984 7.9 3.08 -5
8/20/2022 12:45:00 PM 24.38 75.884 7.91 3.08 -5
8/20/2022 1:00:00 PM 24.25 75.65 7.98 2.93 -5
8/20/2022 1:15:00 PM 24.37 75.866 8.03 2.94 -5
8/20/2022 1:30:00 PM 24.51 76.118 8.09 2.99 -5
8/20/2022 1:45:00 PM 24.62 76.316 8.16 2.92 -5
8/20/2022 2:00:00 PM 24.75 76.55 8.2 2.97 -5
8/20/2022 2:15:00 PM 24.75 76.55 8.19 2.89 -5
8/20/2022 2:30:00 PM 24.75 76.55 8.18 2.94 -5
8/20/2022 2:45:00 PM 24.88 76.784 8.18 2.91 -5
8/20/2022 3:00:00 PM 25 77 8.19 2.86 -5
8/20/2022 3:15:00 PM 25.01 77.018 8.19 2.93 -5
8/20/2022 3:30:00 PM 25.01 77.018 8.19 2.88 -5
8/20/2022 3:45:00 PM 25 77 8.19 2.79 -5
8/20/2022 4:00:00 PM 25.12 77.216 8.2 2.85 -5
8/20/2022 4:15:00 PM 25.25 77.45 8.22 2.85 -5
8/20/2022 4:30:00 PM 25.25 77.45 8.24 2.97 -5
8/20/2022 4:45:00 PM 25.25 77.45 8.22 2.89 -5
8/20/2022 5:00:00 PM 25.12 77.216 8.2 2.88 -5
8/20/2022 5:15:00 PM 25.12 77.216 8.17 2.84 -5
8/20/2022 5:30:00 PM 25.12 77.216 8.14 2.84 -5
8/20/2022 5:45:00 PM 25.12 77.216 8.15 3 -5
8/20/2022 6:00:00 PM 25 77 8.15 2.88 -5
8/20/2022 6:15:00 PM 25.01 77.018 8.14 2.87 -5
8/20/2022 6:30:00 PM 25 77 8.13 2.92 -5
8/20/2022 6:45:00 PM 25 77 8.12 2.93 -5
8/20/2022 7:00:00 PM 24.88 76.784 8.11 2.97 -5
8/20/2022 7:15:00 PM 24.88 76.784 8.1 2.86 -5
8/20/2022 7:30:00 PM 24.75 76.55 8.09 2.9 -5
8/20/2022 7:45:00 PM 24.62 76.316 8.08 2.89 -5
8/20/2022 8:00:00 PM 24.62 76.316 8.08 2.93 -5
8/20/2022 8:15:00 PM 24.51 76.118 8.06 2.88 -5
8/20/2022 8:30:00 PM 24.37 75.866 8.05 2.95 -5
8/20/2022 8:45:00 PM 24.25 75.65 8.03 2.93 -5
8/20/2022 9:00:00 PM 24.25 75.65 8.03 3.06 -5
8/20/2022 9:15:00 PM 24.14 75.452 8.03 3.05 -5
8/20/2022 9:30:00 PM 24.14 75.452 8.03 3.03 -5
8/20/2022 9:45:00 PM 23.99 75.182 8.02 3.06 -5
8/20/2022 10:00:00 PM 23.99 75.182 8.01 3.04 -5
8/20/2022 10:15:00 PM 23.99 75.182 8 3.1 -5
8/20/2022 10:30:00 PM 23.88 74.984 7.97 3.09 -5
8/20/2022 10:45:00 PM 23.88 74.984 7.94 3.1 -5
8/20/2022 11:00:00 PM 23.76 74.768 7.94 3.16 -5
8/20/2022 11:15:00 PM 23.76 74.768 7.91 3.12 -5
8/20/2022 11:30:00 PM 23.76 74.768 7.89 3.16 -5
8/20/2022 11:45:00 PM 23.61 74.498 7.88 3.21 -5
8/21/2022 12:00:00 AM 23.62 74.516 7.87 3.23 -5
8/21/2022 12:15:00 AM 23.62 74.516 7.86 3.29 -5
8/21/2022 12:30:00 AM 23.62 74.516 7.86 3.34 -5
8/21/2022 12:45:00 AM 23.99 75.182 7.87 3.31 -5
8/21/2022 1:00:00 AM 23.62 74.516 7.85 3.4 -5
8/21/2022 1:15:00 AM 23.5 74.3 7.84 3.32 -5
8/21/2022 1:30:00 AM 23.5 74.3 7.84 3.34 -5
8/21/2022 1:45:00 AM 23.77 74.786 7.84 3.32 -5
8/21/2022 2:00:00 AM 23.77 74.786 7.84 3.44 -5
8/21/2022 2:15:00 AM 23.5 74.3 7.82 3.39 -5
8/21/2022 2:30:00 AM 23.39 74.102 7.81 3.43 -5
8/21/2022 2:45:00 AM 23.24 73.832 7.81 3.44 -5
8/21/2022 3:00:00 AM 23.77 74.786 7.83 3.41 -5
8/21/2022 3:15:00 AM 23.39 74.102 7.81 3.52 -5
8/21/2022 3:30:00 AM 23.25 73.85 7.79 3.45 -5
8/21/2022 3:45:00 AM 23.39 74.102 7.79 3.5 -5
8/21/2022 4:00:00 AM 23.62 74.516 7.81 3.53 -5
8/21/2022 4:15:00 AM 23.25 73.85 7.8 3.56 -5
8/21/2022 4:30:00 AM 23.13 73.634 7.77 3.58 -5
8/21/2022 4:45:00 AM 23.39 74.102 7.78 3.53 -5
8/21/2022 5:00:00 AM 23.39 74.102 7.8 3.56 -5
8/21/2022 5:15:00 AM 23.13 73.634 7.78 3.77 -5
8/21/2022 5:30:00 AM 23.13 73.634 7.78 3.65 -5
8/21/2022 5:45:00 AM 23.5 74.3 7.8 3.66 -5
8/21/2022 6:00:00 AM 23.13 73.634 7.79 3.66 -5
8/21/2022 6:15:00 AM 23 73.4 7.78 3.68 -5
8/21/2022 6:30:00 AM 23.5 74.3 7.79 3.86 -5
8/21/2022 6:45:00 AM 23.13 73.634 7.78 3.74 -5
8/21/2022 7:00:00 AM 23 73.4 7.78 3.72 -5
8/21/2022 7:15:00 AM 23.5 74.3 7.79 3.65 -5
8/21/2022 7:30:00 AM 23.13 73.634 7.79 3.68 -5
8/21/2022 7:45:00 AM 23 73.4 7.78 3.64 -5
8/21/2022 8:00:00 AM 23.5 74.3 7.8 3.68 -5
8/21/2022 8:15:00 AM 23.13 73.634 7.81 3.62 -5
8/21/2022 8:30:00 AM 23 73.4 7.81 3.55 -5
8/21/2022 8:45:00 AM 23.39 74.102 7.81 3.62 -5
8/21/2022 9:00:00 AM 23.13 73.634 7.82 3.64 -5
8/21/2022 9:15:00 AM 23 73.4 7.83 3.48 -5
8/21/2022 9:30:00 AM 23.5 74.3 7.85 3.4 -5
8/21/2022 9:45:00 AM 23.13 73.634 7.86 3.31 -5
8/21/2022 10:00:00 AM 23.13 73.634 7.87 3.27 -5
8/21/2022 10:15:00 AM 23.62 74.516 7.87 3.8 -5
8/21/2022 10:30:00 AM 23.25 73.85 7.88 3.22 -5
8/21/2022 10:45:00 AM 23.25 73.85 7.89 3.17 -5
8/21/2022 11:00:00 AM 23.51 74.318 7.9 3.24 -5
8/21/2022 11:15:00 AM 23.39 74.102 7.91 3.22 -5
8/21/2022 11:30:00 AM 23.24 73.832 7.93 3.2 -5
8/21/2022 11:45:00 AM 23.5 74.3 7.95 3.06 -5
8/21/2022 12:00:00 PM 23.62 74.516 7.96 3.16 -5
8/21/2022 12:15:00 PM 23.51 74.318 7.97 3.06 -5
8/21/2022 12:30:00 PM 23.39 74.102 7.97 3.12 -5
8/21/2022 12:45:00 PM 23.76 74.768 7.98 3.02 -5
8/21/2022 1:00:00 PM 23.5 74.3 7.99 3.04 -5
8/21/2022 1:15:00 PM 23.39 74.102 7.99 3 -5
8/21/2022 1:30:00 PM 23.5 74.3 7.99 3.01 -5
8/21/2022 1:45:00 PM 23.88 74.984 7.99 3.01 -5
8/21/2022 2:00:00 PM 23.5 74.3 7.98 3 -5
8/21/2022 2:15:00 PM 23.39 74.102 7.97 3.04 -5
8/21/2022 2:30:00 PM 23.5 74.3 7.96 3.08 -5
8/21/2022 2:45:00 PM 23.77 74.786 7.95 3.08 -5
8/21/2022 3:00:00 PM 23.5 74.3 7.95 3.03 -5
8/21/2022 3:15:00 PM 23.39 74.102 7.95 2.98 -5
8/21/2022 3:30:00 PM 23.5 74.3 7.95 3.11 -5
8/21/2022 3:45:00 PM 23.5 74.3 7.97 3.08 -5
8/21/2022 4:00:00 PM 23.25 73.85 7.98 3.1 -5
8/21/2022 4:15:00 PM 23 73.4 7.98 3.16 -5
8/21/2022 4:30:00 PM 23.39 74.102 7.91 3.08 -5
8/21/2022 4:45:00 PM 23 73.4 7.88 3.02 -5
8/21/2022 5:00:00 PM 22.75 72.95 7.88 2.97 -5
8/21/2022 5:15:00 PM 23.13 73.634 7.89 3.09 -5
8/21/2022 5:30:00 PM 22.87 73.166 7.89 3.02 -5
8/21/2022 5:45:00 PM 22.75 72.95 7.9 3 -5
8/21/2022 6:00:00 PM 23.13 73.634 7.94 3.05 -5
8/21/2022 6:15:00 PM 22.87 73.166 7.95 2.99 -5
8/21/2022 6:30:00 PM 22.75 72.95 7.94 3.02 -5
8/21/2022 6:45:00 PM 23.25 73.85 7.93 3.02 -5
8/21/2022 7:00:00 PM 23 73.4 7.92 3 -5
8/21/2022 7:15:00 PM 22.87 73.166 7.91 3.04 -5
8/21/2022 7:30:00 PM 22.87 73.166 7.89 3.04 -5
8/21/2022 7:45:00 PM 23.13 73.634 7.88 3.05 -5
8/21/2022 8:00:00 PM 22.87 73.166 7.86 3.09 -5
8/21/2022 8:15:00 PM 22.75 72.95 7.84 3.11 -5
8/21/2022 8:30:00 PM 23.13 73.634 7.87 3.14 -5
8/21/2022 8:45:00 PM 22.87 73.166 7.87 3.17 -5
8/21/2022 9:00:00 PM 22.75 72.95 7.86 3.26 -5
8/21/2022 9:15:00 PM 23.13 73.634 7.85 3.14 -5
8/21/2022 9:30:00 PM 22.87 73.166 7.82 3.24 -5
8/21/2022 9:45:00 PM 22.63 72.734 7.79 3.27 -5
8/21/2022 10:00:00 PM 22.87 73.166 7.78 3.28 -5
8/21/2022 10:15:00 PM 22.75 72.95 7.76 3.27 -5
8/21/2022 10:30:00 PM 22.5 72.5 7.74 3.32 -5
8/21/2022 10:45:00 PM 22.75 72.95 7.72 3.29 -5
8/21/2022 11:00:00 PM 22.63 72.734 7.71 3.37 -5
8/21/2022 11:15:00 PM 22.37 72.266 7.69 3.44 -5
8/21/2022 11:30:00 PM 22.63 72.734 7.68 3.41 -5
8/21/2022 11:45:00 PM 22.5 72.5 7.68 3.43 -5
8/22/2022 12:00:00 AM 22.25 72.05 7.66 3.57 -5
8/22/2022 12:15:00 AM 22.5 72.5 7.67 3.56 -5
8/22/2022 12:30:00 AM 22.25 72.05 7.67 3.44 -5
8/22/2022 12:45:00 AM 22.12 71.816 7.65 3.46 -5
8/22/2022 1:00:00 AM 22.5 72.5 7.66 3.51 -5
8/22/2022 1:15:00 AM 22.25 72.05 7.65 3.58 -5
8/22/2022 1:30:00 AM 21.99 71.582 7.64 3.57 -5
8/22/2022 1:45:00 AM 22.37 72.266 7.64 3.53 -5
8/22/2022 2:00:00 AM 22.12 71.816 7.63 3.64 -5
8/22/2022 2:15:00 AM 21.99 71.582 7.62 3.59 -5
8/22/2022 2:30:00 AM 22.25 72.05 7.63 3.61 -5
8/22/2022 2:45:00 AM 21.99 71.582 7.63 3.94 -5
8/22/2022 3:00:00 AM 21.88 71.384 7.62 3.64 -5
8/22/2022 3:15:00 AM 22.25 72.05 7.64 3.64 -5
8/22/2022 3:30:00 AM 21.99 71.582 7.64 3.69 -5
8/22/2022 3:45:00 AM 21.88 71.384 7.64 3.69 -5
8/22/2022 4:00:00 AM 22.25 72.05 7.64 4.03 -5
8/22/2022 4:15:00 AM 21.88 71.384 7.64 3.71 -5
8/22/2022 4:30:00 AM 21.73 71.114 7.63 3.71 -5
8/22/2022 4:45:00 AM 22.26 72.068 7.64 3.79 -5
8/22/2022 5:00:00 AM 21.88 71.384 7.64 3.81 -5
8/22/2022 5:15:00 AM 21.99 71.582 7.63 4.14 -5
8/22/2022 5:30:00 AM 21.99 71.582 7.64 3.93 -5
8/22/2022 5:45:00 AM 21.74 71.132 7.63 3.84 -5
8/22/2022 6:00:00 AM 22.12 71.816 7.63 3.85 -5
8/22/2022 6:15:00 AM 21.99 71.582 7.63 3.92 -5
8/22/2022 6:30:00 AM 21.73 71.114 7.63 4.1 -5
8/22/2022 6:45:00 AM 22.12 71.816 7.63 3.97 -5
8/22/2022 7:00:00 AM 21.88 71.384 7.63 4.05 -5
8/22/2022 7:15:00 AM 21.73 71.114 7.61 9.43 -5
8/22/2022 7:30:00 AM 22.12 71.816 7.64 3.38 -5
8/22/2022 7:45:00 AM 21.99 71.582 7.64 3.2 -5
8/22/2022 8:00:00 AM 21.99 71.582 7.64 3.17 -5
8/22/2022 8:15:00 AM 22.14 71.852 7.65 3.18 -5
8/22/2022 8:30:00 AM 21.88 71.384 7.65 3.13 -5
8/22/2022 8:45:00 AM 22.12 71.816 7.65 3.13 -5
8/22/2022 9:00:00 AM 21.99 71.582 7.66 3.08 -5
8/22/2022 9:15:00 AM 21.99 71.582 7.66 3.01 -5
8/22/2022 9:30:00 AM 22.12 71.816 7.67 3.13 -5
8/22/2022 9:45:00 AM 21.74 71.132 7.67 2.93 -5
8/22/2022 10:00:00 AM 22.25 72.05 7.67 2.89 -5
8/22/2022 10:15:00 AM 21.88 71.384 7.69 2.9 -5
8/22/2022 10:30:00 AM 22.12 71.816 7.7 2.88 -5
8/22/2022 10:45:00 AM 22.13 71.834 7.71 2.88 -5
8/22/2022 11:00:00 AM 22.12 71.816 7.7 2.93 -5
8/22/2022 11:15:00 AM 22.75 72.95 7.7 2.85 -5
8/22/2022 11:30:00 AM 22.37 72.266 7.7 2.75 -5
8/22/2022 11:45:00 AM 22.5 72.5 7.71 2.78 -5
8/22/2022 12:00:00 PM 22.75 72.95 7.72 2.77 -5
8/22/2022 12:15:00 PM 22.63 72.734 7.72 2.8 -5
8/22/2022 12:30:00 PM 23 73.4 7.72 2.78 -5
8/22/2022 12:45:00 PM 23 73.4 7.72 2.67 -5
8/22/2022 1:00:00 PM 22.87 73.166 7.73 2.66 -5
8/22/2022 1:15:00 PM 23.39 74.102 7.75 3.19 -5
8/22/2022 1:30:00 PM 23.24 73.832 7.76 2.81 -5
8/22/2022 1:45:00 PM 23 73.4 7.75 2.75 -5
8/22/2022 2:00:00 PM 23.39 74.102 7.75 2.74 -5
8/22/2022 2:15:00 PM 23.13 73.634 7.76 2.73 -5
8/22/2022 2:30:00 PM 23.13 73.634 7.77 2.72 -5
8/22/2022 2:45:00 PM 23.5 74.3 7.8 2.7 -5
8/22/2022 3:00:00 PM 23.39 74.102 7.83 2.69 -5
8/22/2022 3:15:00 PM 23.39 74.102 7.82 2.74 -5
8/22/2022 3:30:00 PM 23.39 74.102 7.82 2.71 -5
8/22/2022 3:45:00 PM 23.13 73.634 7.82 2.74 -5
8/22/2022 4:00:00 PM 23.39 74.102 7.83 2.65 -5
8/22/2022 4:15:00 PM 23.39 74.102 7.82 2.71 -5
8/22/2022 4:30:00 PM 23.13 73.634 7.82 2.72 -5
8/22/2022 4:45:00 PM 23.13 73.634 7.81 2.72 -5
8/22/2022 5:00:00 PM 23.51 74.318 7.81 2.74 -5
8/22/2022 5:15:00 PM 23.39 74.102 7.81 2.65 -5
8/22/2022 5:30:00 PM 23.39 74.102 7.84 2.71 -5
8/22/2022 5:45:00 PM 23.76 74.768 7.9 2.7 -5
8/22/2022 6:00:00 PM 23.62 74.516 7.92 2.66 -5
8/22/2022 6:15:00 PM 23.39 74.102 7.91 2.67 -5
8/22/2022 6:30:00 PM 23.62 74.516 7.89 2.7 -5
8/22/2022 6:45:00 PM 23.5 74.3 7.88 2.79 -5
8/22/2022 7:00:00 PM 23.25 73.85 7.85 2.65 -5
8/22/2022 7:15:00 PM 23.62 74.516 7.84 2.71 -5
8/22/2022 7:30:00 PM 23.39 74.102 7.84 2.86 -5
8/22/2022 7:45:00 PM 23.25 73.85 7.82 2.64 -5
8/22/2022 8:00:00 PM 23.62 74.516 7.82 3.13 -5
8/22/2022 8:15:00 PM 23.62 74.516 7.82 2.78 -5
8/22/2022 8:30:00 PM 23.5 74.3 7.81 2.96 -5
8/22/2022 8:45:00 PM 23.62 74.516 7.8 3.04 -5
8/22/2022 9:00:00 PM 23.76 74.768 7.79 2.98 -5
8/22/2022 9:15:00 PM 23.5 74.3 7.78 3.08 -5
8/22/2022 9:30:00 PM 23.51 74.318 7.76 3.11 -5
8/22/2022 9:45:00 PM 23.77 74.786 7.74 3.31 -5
8/22/2022 10:00:00 PM 23.39 74.102 7.73 3.19 -5
8/22/2022 10:15:00 PM 23.24 73.832 7.72 3.17 -5
8/22/2022 10:30:00 PM 23.62 74.516 7.71 3.36 -5
8/22/2022 10:45:00 PM 23.39 74.102 7.7 3.36 -5
8/22/2022 11:00:00 PM 23.25 73.85 7.69 3.73 -5
8/22/2022 11:15:00 PM 23.62 74.516 7.69 3.6 -5
8/22/2022 11:30:00 PM 23.25 73.85 7.69 3.61 -5
8/22/2022 11:45:00 PM 23.13 73.634 7.69 3.57 -5
8/23/2022 12:00:00 AM 23.5 74.3 7.7 3.56 -5
8/23/2022 12:15:00 AM 23.13 73.634 7.7 3.66 -5
8/23/2022 12:30:00 AM 23 73.4 7.7 3.77 -5
8/23/2022 12:45:00 AM 23.39 74.102 7.7 3.81 -5
8/23/2022 1:00:00 AM 23 73.4 7.7 3.86 -5
8/23/2022 1:15:00 AM 23 73.4 7.7 3.85 -5
8/23/2022 1:30:00 AM 23.25 73.85 7.7 3.97 -5
8/23/2022 1:45:00 AM 23 73.4 7.7 3.99 -5
8/23/2022 2:00:00 AM 23 73.4 7.7 4.08 -5
8/23/2022 2:15:00 AM 23.13 73.634 7.7 4.09 -5
8/23/2022 2:30:00 AM 22.87 73.166 7.7 4.15 -5
8/23/2022 2:45:00 AM 23.13 73.634 7.71 4.2 -5
8/23/2022 3:00:00 AM 23 73.4 7.71 4.14 -5
8/23/2022 3:15:00 AM 22.87 73.166 7.71 4.22 -5
8/23/2022 3:30:00 AM 23.24 73.832 7.71 4.29 -5
8/23/2022 3:45:00 AM 23 73.4 7.71 4.28 -5
8/23/2022 4:00:00 AM 22.87 73.166 7.71 4.38 -5
8/23/2022 4:15:00 AM 23.13 73.634 7.71 4.35 -5
8/23/2022 4:30:00 AM 22.87 73.166 7.71 4.33 -5
8/23/2022 4:45:00 AM 23.25 73.85 7.71 4.44 -5
8/23/2022 5:00:00 AM 23 73.4 7.71 4.59 -5
8/23/2022 5:15:00 AM 22.87 73.166 7.72 4.39 -5
8/23/2022 5:30:00 AM 23.13 73.634 7.73 4.42 -5
8/23/2022 5:45:00 AM 22.87 73.166 7.74 4.36 -5
8/23/2022 6:00:00 AM 23.13 73.634 7.74 4.51 -5
8/23/2022 6:15:00 AM 23 73.4 7.74 4.53 -5
8/23/2022 6:30:00 AM 22.87 73.166 7.74 4.69 -5
8/23/2022 6:45:00 AM 23.13 73.634 7.74 4.47 -5
8/23/2022 7:00:00 AM 22.75 72.95 7.74 4.58 -5
8/23/2022 7:15:00 AM 23.13 73.634 7.75 4.5 -5
8/23/2022 7:30:00 AM 22.87 73.166 7.75 4.42 -5
8/23/2022 7:45:00 AM 23 73.4 7.76 4.44 -5
8/23/2022 8:00:00 AM 23 73.4 7.77 4.44 -5
8/23/2022 8:15:00 AM 22.63 72.734 7.8 4.31 -5
8/23/2022 8:30:00 AM 23 73.4 7.8 4.3 -5
8/23/2022 8:45:00 AM 22.75 72.95 7.82 4.13 -5
8/23/2022 9:00:00 AM 22.63 72.734 7.83 4.05 -5
8/23/2022 9:15:00 AM 23 73.4 7.84 3.91 -5
8/23/2022 9:30:00 AM 22.75 72.95 7.85 3.91 -5
8/23/2022 9:45:00 AM 22.75 72.95 7.86 3.75 -5
8/23/2022 10:00:00 AM 22.87 73.166 7.87 3.91 -5
8/23/2022 10:15:00 AM 22.75 72.95 7.87 3.63 -5
8/23/2022 10:30:00 AM 22.87 73.166 7.86 3.58 -5
8/23/2022 10:45:00 AM 23.24 73.832 7.85 3.56 -5
8/23/2022 11:00:00 AM 23 73.4 7.85 3.49 -5
8/23/2022 11:15:00 AM 23.24 73.832 7.85 3.42 -5
8/23/2022 11:30:00 AM 23.39 74.102 7.84 3.34 -5
8/23/2022 11:45:00 AM 23.13 73.634 7.84 3.29 -5
8/23/2022 12:00:00 PM 23.51 74.318 7.83 3.23 -5
8/23/2022 12:15:00 PM 23.39 74.102 7.83 3.2 -5
8/23/2022 12:30:00 PM 23.24 73.832 7.83 3.22 -5
8/23/2022 12:45:00 PM 23.77 74.786 7.82 3.16 -5
8/23/2022 1:00:00 PM 23.5 74.3 7.82 3.29 -5
8/23/2022 1:15:00 PM 23.5 74.3 7.82 3.12 -5
8/23/2022 1:30:00 PM 23.99 75.182 7.82 3.24 -5
8/23/2022 1:45:00 PM 23.77 74.786 7.83 3.44 -5
8/23/2022 2:00:00 PM 23.88 74.984 7.84 3.1 -5
8/23/2022 2:15:00 PM 23.99 75.182 7.84 3.15 -5
8/23/2022 2:30:00 PM 23.77 74.786 7.84 3.04 -5
8/23/2022 2:45:00 PM 23.95 75.11 7.84 2.98 -5
8/23/2022 3:00:00 PM 23.99 75.182 7.85 3.02 -5
8/23/2022 3:15:00 PM 23.88 74.984 7.87 3.03 -5
8/23/2022 3:30:00 PM 23.88 74.984 7.88 3.06 -5
8/23/2022 3:45:00 PM 24.14 75.452 7.9 3 -5
8/23/2022 4:00:00 PM 24.25 75.65 7.96 3.02 -5
8/23/2022 4:15:00 PM 24.13 75.434 7.96 3.09 -5
8/23/2022 4:30:00 PM 23.99 75.182 7.96 3 -5
8/23/2022 4:45:00 PM 23.99 75.182 7.95 3.12 -5
8/23/2022 5:00:00 PM 24.37 75.866 7.95 3.02 -5
8/23/2022 5:15:00 PM 24.25 75.65 7.98 2.97 -5
8/23/2022 5:30:00 PM 24.25 75.65 8.03 2.97 -5
8/23/2022 5:45:00 PM 24.25 75.65 8.04 2.89 -5
8/23/2022 6:00:00 PM 24.51 76.118 8.02 3.01 -5
8/23/2022 6:15:00 PM 24.38 75.884 8 2.96 -5
8/23/2022 6:30:00 PM 24.14 75.452 7.97 2.95 -5
8/23/2022 6:45:00 PM 24.14 75.452 7.96 3.02 -5
8/23/2022 7:00:00 PM 24.37 75.866 7.95 3.13 -5
8/23/2022 7:15:00 PM 24.13 75.434 7.94 2.96 -5
8/23/2022 7:30:00 PM 23.88 74.984 7.92 2.95 -5
8/23/2022 7:45:00 PM 24.25 75.65 7.9 2.99 -5
8/23/2022 8:00:00 PM 23.88 74.984 7.88 3.02 -5
8/23/2022 8:15:00 PM 23.77 74.786 7.86 3.08 -5
8/23/2022 8:30:00 PM 23.99 75.182 7.85 3.07 -5
8/23/2022 8:45:00 PM 23.76 74.768 7.83 3.13 -5
8/23/2022 9:00:00 PM 23.54 74.372 7.82 3.27 -5
8/23/2022 9:15:00 PM 23.88 74.984 7.81 3.3 -5
8/23/2022 9:30:00 PM 23.62 74.516 7.8 3.28 -5
8/23/2022 9:45:00 PM 23.62 74.516 7.79 3.47 -5
8/23/2022 10:00:00 PM 23.77 74.786 7.79 3.42 -5
8/23/2022 10:15:00 PM 23.5 74.3 7.79 3.38 -5
8/23/2022 10:30:00 PM 23.5 74.3 7.78 3.41 -5
8/23/2022 10:45:00 PM 23.62 74.516 7.78 3.51 -5
8/23/2022 11:00:00 PM 23.25 73.85 7.78 3.54 -5
8/23/2022 11:15:00 PM 23.5 74.3 7.78 3.72 -5
8/23/2022 11:30:00 PM 23.51 74.318 7.79 3.7 -5
8/23/2022 11:45:00 PM 23.25 73.85 7.78 3.69 -5
8/24/2022 12:00:00 AM 23.51 74.318 7.78 3.87 -5
8/24/2022 12:15:00 AM 23.39 74.102 7.78 3.83 -5
8/24/2022 12:30:00 AM 23.13 73.634 7.79 3.74 -5
8/24/2022 12:45:00 AM 23.62 74.516 7.8 3.71 -5
8/24/2022 1:00:00 AM 23.25 73.85 7.81 3.86 -5
8/24/2022 1:15:00 AM 23.13 73.634 7.81 3.78 -5
8/24/2022 1:30:00 AM 23.5 74.3 7.81 3.82 -5
8/24/2022 1:45:00 AM 23.13 73.634 7.82 3.83 -5
8/24/2022 2:00:00 AM 23.23 73.814 7.83 3.92 -5
8/24/2022 2:15:00 AM 23.25 73.85 7.83 4 -5
8/24/2022 2:30:00 AM 23 73.4 7.84 3.98 -5
8/24/2022 2:45:00 AM 23.24 73.832 7.83 3.97 -5
8/24/2022 3:00:00 AM 23.13 73.634 7.83 4.01 -5
8/24/2022 3:15:00 AM 23 73.4 7.82 4.05 -5
8/24/2022 3:30:00 AM 23.25 73.85 7.84 4.24 -5
8/24/2022 3:45:00 AM 23 73.4 7.81 4.16 -5
8/24/2022 4:00:00 AM 23.25 73.85 7.82 4.16 -5
8/24/2022 4:15:00 AM 23 73.4 7.8 4.14 -5
8/24/2022 4:30:00 AM 22.87 73.166 7.78 4.15 -5
8/24/2022 4:45:00 AM 23.25 73.85 7.81 4.32 -5
8/24/2022 5:00:00 AM 22.87 73.166 7.79 4.41 -5
8/24/2022 5:15:00 AM 23.25 73.85 7.81 4.57 -5
8/24/2022 5:30:00 AM 23 73.4 7.81 4.47 -5
8/24/2022 5:45:00 AM 23 73.4 7.8 4.51 -5
8/24/2022 6:00:00 AM 23.13 73.634 7.81 4.65 -5
8/24/2022 6:15:00 AM 22.87 73.166 7.81 4.81 -5
8/24/2022 6:30:00 AM 23.25 73.85 7.8 4.85 -5
8/24/2022 6:45:00 AM 22.87 73.166 7.79 4.86 -5
8/24/2022 7:00:00 AM 23 73.4 7.81 4.8 -5
8/24/2022 7:15:00 AM 23 73.4 7.82 4.78 -5
8/24/2022 7:30:00 AM 22.75 72.95 7.8 4.78 -5
8/24/2022 7:45:00 AM 23.13 73.634 7.81 4.84 -5
8/24/2022 8:00:00 AM 22.75 72.95 7.79 4.82 -5
8/24/2022 8:15:00 AM 23 73.4 7.81 4.66 -5
8/24/2022 8:30:00 AM 23 73.4 7.83 4.61 -5
8/24/2022 8:45:00 AM 22.87 73.166 7.84 4.62 -5
8/24/2022 9:00:00 AM 23.24 73.832 7.84 4.63 -5
8/24/2022 9:15:00 AM 23 73.4 7.84 4.67 -5
8/24/2022 9:30:00 AM 23 73.4 7.85 4.58 -5
8/24/2022 9:45:00 AM 23.13 73.634 7.85 4.48 -5
8/24/2022 10:00:00 AM 22.87 73.166 7.86 4.43 -5
8/24/2022 10:15:00 AM 23.25 73.85 7.86 4.59 -5
8/24/2022 10:30:00 AM 23.13 73.634 7.86 4.57 -5
8/24/2022 10:45:00 AM 23 73.4 7.86 4.4 -5
8/24/2022 11:00:00 AM 23.39 74.102 7.85 4.41 -5
8/24/2022 11:15:00 AM 23.13 73.634 7.84 4.28 -5
8/24/2022 11:30:00 AM 23.39 74.102 7.83 4.23 -5
8/24/2022 11:45:00 AM 23.39 74.102 7.84 4.22 -5
8/24/2022 12:00:00 PM 23.25 73.85 7.84 4.13 -5
8/24/2022 12:15:00 PM 23.51 74.318 7.83 4.17 -5
8/24/2022 12:30:00 PM 23.62 74.516 7.82 4.12 -5
8/24/2022 12:45:00 PM 23.51 74.318 7.82 4.15 -5
8/24/2022 1:00:00 PM 23.88 74.984 7.82 4.08 -5
8/24/2022 1:15:00 PM 23.88 74.984 7.82 4.05 -5
8/24/2022 1:30:00 PM 23.76 74.768 7.82 4.01 -5
8/24/2022 1:45:00 PM 23.88 74.984 7.83 4 -5
8/24/2022 2:00:00 PM 24.25 75.65 7.83 4.02 -5
8/24/2022 2:15:00 PM 24.14 75.452 7.84 3.97 -5
8/24/2022 2:30:00 PM 23.99 75.182 7.84 4.06 -5
8/24/2022 2:45:00 PM 24.25 75.65 7.85 4.01 -5
8/24/2022 3:00:00 PM 24.51 76.118 7.88 4.01 -5
8/24/2022 3:15:00 PM 24.25 75.65 7.89 3.91 -5
8/24/2022 3:30:00 PM 24.25 75.65 7.88 3.89 -5
8/24/2022 3:45:00 PM 24.25 75.65 7.89 3.84 -5
8/24/2022 4:00:00 PM 24.62 76.316 7.91 3.93 -5
8/24/2022 4:15:00 PM 24.51 76.118 7.9 3.91 -5
8/24/2022 4:30:00 PM 24.37 75.866 7.91 3.98 -5
8/24/2022 4:45:00 PM 24.51 76.118 7.95 3.84 -5
8/24/2022 5:00:00 PM 24.75 76.55 7.98 3.88 -5
8/24/2022 5:15:00 PM 24.88 76.784 8.02 3.88 -5
8/24/2022 5:30:00 PM 24.75 76.55 8.02 3.86 -5
8/24/2022 5:45:00 PM 24.62 76.316 8.02 3.88 -5
8/24/2022 6:00:00 PM 24.62 76.316 8.03 3.93 -5
8/24/2022 6:15:00 PM 24.62 76.316 8.03 3.9 -5
8/24/2022 6:30:00 PM 24.62 76.316 8.02 3.88 -5
8/24/2022 6:45:00 PM 24.51 76.118 8 3.97 -5
8/24/2022 7:00:00 PM 24.51 76.118 7.99 3.98 -5
8/24/2022 7:15:00 PM 24.62 76.316 7.98 3.94 -5
8/24/2022 7:30:00 PM 24.75 76.55 7.97 3.97 -5
8/24/2022 7:45:00 PM 24.51 76.118 7.96 3.95 -5
8/24/2022 8:00:00 PM 24.38 75.884 7.94 4.15 -5
8/24/2022 8:15:00 PM 24.25 75.65 7.93 4.08 -5
8/24/2022 8:30:00 PM 24.51 76.118 7.94 4.13 -5
8/24/2022 8:45:00 PM 24.25 75.65 7.93 4.2 -5
8/24/2022 9:00:00 PM 24.14 75.452 7.92 4.24 -5
8/24/2022 9:15:00 PM 23.99 75.182 7.9 4.4 -5
8/24/2022 9:30:00 PM 24.14 75.452 7.9 4.42 -5
8/24/2022 9:45:00 PM 24.14 75.452 7.89 4.34 -5
8/24/2022 10:00:00 PM 23.99 75.182 7.88 4.46 -5
8/24/2022 10:15:00 PM 23.99 75.182 7.88 4.66 -5
8/24/2022 10:30:00 PM 24.25 75.65 7.87 4.66 -5
8/24/2022 10:45:00 PM 23.99 75.182 7.87 4.64 -5
8/24/2022 11:00:00 PM 23.88 74.984 7.87 4.76 -5
8/24/2022 11:15:00 PM 24.25 75.65 7.87 4.71 -5
8/24/2022 11:30:00 PM 23.99 75.182 7.87 4.78 -5
8/24/2022 11:45:00 PM 23.88 74.984 7.86 4.78 -5
8/25/2022 12:00:00 AM 24.14 75.452 7.87 4.77 -5
8/25/2022 12:15:00 AM 23.99 75.182 7.86 4.77 -5
8/25/2022 12:30:00 AM 23.88 74.984 7.86 4.8 -5
8/25/2022 12:45:00 AM 23.99 75.182 7.86 5.03 -5
8/25/2022 1:00:00 AM 23.99 75.182 7.86 4.87 -5
8/25/2022 1:15:00 AM 23.77 74.786 7.87 4.88 -5
8/25/2022 1:30:00 AM 23.99 75.182 7.88 4.85 -5
8/25/2022 1:45:00 AM 23.88 74.984 7.89 4.97 -5
8/25/2022 2:00:00 AM 23.77 74.786 7.9 4.88 -5
8/25/2022 2:15:00 AM 23.99 75.182 7.9 4.9 -5
8/25/2022 2:30:00 AM 23.88 74.984 7.9 4.99 -5
8/25/2022 2:45:00 AM 23.62 74.516 7.9 4.86 -5
8/25/2022 3:00:00 AM 23.99 75.182 7.9 5.11 -5
8/25/2022 3:15:00 AM 23.77 74.786 7.9 4.91 -5
8/25/2022 3:30:00 AM 23.77 74.786 7.9 4.91 -5
8/25/2022 3:45:00 AM 23.99 75.182 7.9 4.92 -5
8/25/2022 4:00:00 AM 23.77 74.786 7.9 4.91 -5
8/25/2022 4:15:00 AM 23.88 74.984 7.9 5.22 -5
8/25/2022 4:30:00 AM 23.88 74.984 7.89 4.94 -5
8/25/2022 4:45:00 AM 23.77 74.786 7.9 5.06 -5
8/25/2022 5:00:00 AM 23.99 75.182 7.9 4.98 -5
8/25/2022 5:15:00 AM 23.88 74.984 7.89 4.93 -5
8/25/2022 5:30:00 AM 23.62 74.516 7.9 5.13 -5
8/25/2022 5:45:00 AM 23.99 75.182 7.9 4.99 -5
8/25/2022 6:00:00 AM 23.76 74.768 7.91 5.06 -5
8/25/2022 6:15:00 AM 23.77 74.786 7.91 5.18 -5
8/25/2022 6:30:00 AM 23.88 74.984 7.9 5.12 -5
8/25/2022 6:45:00 AM 23.5 74.3 7.86 4.63 -5
8/25/2022 7:00:00 AM 23.88 74.984 7.87 4.59 -5
8/25/2022 7:15:00 AM 23.62 74.516 7.86 4.44 -5
8/25/2022 7:30:00 AM 23.5 74.3 7.84 4.37 -5
8/25/2022 7:45:00 AM 23.62 74.516 7.86 4.36 -5
8/25/2022 8:00:00 AM 23.39 74.102 7.84 4.37 -5
8/25/2022 8:15:00 AM 23.62 74.516 7.85 4.31 -5
8/25/2022 8:30:00 AM 23.39 74.102 7.87 4.24 -5
8/25/2022 8:45:00 AM 23.25 73.85 7.86 4.43 -5
8/25/2022 9:00:00 AM 23.62 74.516 7.88 4.29 -5
8/25/2022 9:15:00 AM 23.25 73.85 7.89 4.1 -5
8/25/2022 9:30:00 AM 23.39 74.102 7.9 3.98 -5
8/25/2022 9:45:00 AM 23.51 74.318 7.92 3.92 -5
8/25/2022 10:00:00 AM 23.25 73.85 7.93 3.77 -5
8/25/2022 10:15:00 AM 23.62 74.516 7.93 3.66 -5
8/25/2022 10:30:00 AM 23.39 74.102 7.93 3.61 -5
8/25/2022 10:45:00 AM 23.39 74.102 7.93 3.55 -5
8/25/2022 11:00:00 AM 23.77 74.786 7.92 3.57 -5
8/25/2022 11:15:00 AM 23.51 74.318 7.91 3.62 -5
8/25/2022 11:30:00 AM 23.88 74.984 7.9 3.54 -5
8/25/2022 11:45:00 AM 23.77 74.786 7.88 3.43 -5
8/25/2022 12:00:00 PM 23.63 74.534 7.87 3.43 -5
8/25/2022 12:15:00 PM 24.14 75.452 7.86 3.52 -5
8/25/2022 12:30:00 PM 23.99 75.182 7.86 3.46 -5
8/25/2022 12:45:00 PM 23.88 74.984 7.87 3.39 -5
8/25/2022 1:00:00 PM 24.38 75.884 7.87 3.38 -5
8/25/2022 1:15:00 PM 24.25 75.65 7.86 3.37 -5
8/25/2022 1:30:00 PM 24.25 75.65 7.87 3.28 -5
8/25/2022 1:45:00 PM 24.75 76.55 7.87 3.47 -5
8/25/2022 2:00:00 PM 24.62 76.316 7.89 3.28 -5
8/25/2022 2:15:00 PM 24.62 76.316 7.91 3.25 -5
8/25/2022 2:30:00 PM 24.62 76.316 7.94 3.25 -5
8/25/2022 2:45:00 PM 25.12 77.216 7.99 3.18 -5
8/25/2022 3:00:00 PM 25.01 77.018 8.04 3.18 -5
8/25/2022 3:15:00 PM 25.01 77.018 8.07 3.13 -5
8/25/2022 3:30:00 PM 24.88 76.784 8.1 3.11 -5
8/25/2022 3:45:00 PM 25.01 77.018 8.11 3.09 -5
8/25/2022 4:00:00 PM 25.38 77.684 8.13 3.06 -5
8/25/2022 4:15:00 PM 25.12 77.216 8.13 3.09 -5
8/25/2022 4:30:00 PM 25.12 77.216 8.14 3.22 -5
8/25/2022 4:45:00 PM 25.12 77.216 8.14 3.13 -5
8/25/2022 5:00:00 PM 25.12 77.216 8.13 3.06 -5
8/25/2022 5:15:00 PM 25.12 77.216 8.14 3.03 -5
8/25/2022 5:30:00 PM 25.12 77.216 8.14 3.07 -5
8/25/2022 5:45:00 PM 25.25 77.45 8.15 3.17 -5
8/25/2022 6:00:00 PM 25.12 77.216 8.16 3.07 -5
8/25/2022 6:15:00 PM 25.12 77.216 8.14 3.19 -5
8/25/2022 6:30:00 PM 25.12 77.216 8.15 3.27 -5
8/25/2022 6:45:00 PM 25.12 77.216 8.14 3.2 -5
8/25/2022 7:00:00 PM 25.12 77.216 8.13 3.23 -5
8/25/2022 7:15:00 PM 25 77 8.12 3.19 -5
8/25/2022 7:30:00 PM 25.01 77.018 8.1 3.19 -5
8/25/2022 7:45:00 PM 25 77 8.07 3.16 -5
8/25/2022 8:00:00 PM 25.01 77.018 8.05 3.16 -5
8/25/2022 8:15:00 PM 24.88 76.784 8.02 3.29 -5
8/25/2022 8:30:00 PM 24.75 76.55 8 3.46 -5
8/25/2022 8:45:00 PM 24.75 76.55 7.98 3.8 -5
8/25/2022 9:00:00 PM 24.62 76.316